<?xml version="1.0" encoding="UTF-8" standalone="no" ?>
<gpx xmlns="http://www.topografix.com/GPX/1/1" xmlns:xsi="http://www.w3.org/2001/XMLSchema-instance" xsi:schemaLocation="http://www.topografix.com/GPX/1/1 http://www.topografix.com/GPX/1/1/gpx.xsd" version="1.1" creator="VisuGPX - https://www.visugpx.com">
  <metadata>
    <name>4jours de l'Yzer Diksmuide</name>
  </metadata>
  <trk>
    <name><![CDATA[4jours de l'Yzer Diksmuide_1]]></name>
    <trkseg>
      <trkpt lat="51.03342" lon="2.86406">
        <ele>9</ele>
        <time>2021-08-18T06:00:16Z</time>
      </trkpt>
      <trkpt lat="51.03341" lon="2.86407">
        <ele>3.8</ele>
        <time>2021-08-18T06:00:33Z</time>
      </trkpt>
      <trkpt lat="51.03342" lon="2.86407">
        <ele>1.8</ele>
        <time>2021-08-18T06:00:34Z</time>
      </trkpt>
      <trkpt lat="51.03343" lon="2.86405">
        <ele>-0.19999999999999</ele>
        <time>2021-08-18T06:00:36Z</time>
      </trkpt>
      <trkpt lat="51.03343" lon="2.86403">
        <ele>-0.19999999999999</ele>
        <time>2021-08-18T06:00:37Z</time>
      </trkpt>
      <trkpt lat="51.03344" lon="2.864">
        <ele>0.60000000000002</ele>
        <time>2021-08-18T06:00:38Z</time>
      </trkpt>
      <trkpt lat="51.03344" lon="2.86398">
        <ele>1.4</ele>
        <time>2021-08-18T06:00:39Z</time>
      </trkpt>
      <trkpt lat="51.03345" lon="2.86396">
        <ele>2.4</ele>
        <time>2021-08-18T06:00:40Z</time>
      </trkpt>
      <trkpt lat="51.03346" lon="2.86394">
        <ele>4.4</ele>
        <time>2021-08-18T06:00:41Z</time>
      </trkpt>
      <trkpt lat="51.03347" lon="2.86393">
        <ele>6</ele>
        <time>2021-08-18T06:00:42Z</time>
      </trkpt>
      <trkpt lat="51.03349" lon="2.86391">
        <ele>6.8</ele>
        <time>2021-08-18T06:00:43Z</time>
      </trkpt>
      <trkpt lat="51.0335" lon="2.86391">
        <ele>7.2</ele>
        <time>2021-08-18T06:00:44Z</time>
      </trkpt>
      <trkpt lat="51.03352" lon="2.86391">
        <ele>7.6</ele>
        <time>2021-08-18T06:00:45Z</time>
      </trkpt>
      <trkpt lat="51.03353" lon="2.86391">
        <ele>8</ele>
        <time>2021-08-18T06:00:46Z</time>
      </trkpt>
      <trkpt lat="51.03354" lon="2.86391">
        <ele>8.4</ele>
        <time>2021-08-18T06:00:47Z</time>
      </trkpt>
      <trkpt lat="51.03355" lon="2.86392">
        <ele>8.8</ele>
        <time>2021-08-18T06:00:48Z</time>
      </trkpt>
      <trkpt lat="51.0337" lon="2.86386">
        <ele>8.6</ele>
        <time>2021-08-18T06:01:03Z</time>
      </trkpt>
      <trkpt lat="51.03398" lon="2.8639">
        <ele>9</ele>
        <time>2021-08-18T06:01:24Z</time>
      </trkpt>
      <trkpt lat="51.03427" lon="2.86395">
        <ele>8.8</ele>
        <time>2021-08-18T06:01:45Z</time>
      </trkpt>
      <trkpt lat="51.03464" lon="2.86405">
        <ele>8.6</ele>
        <time>2021-08-18T06:02:10Z</time>
      </trkpt>
      <trkpt lat="51.03487" lon="2.86399">
        <ele>8.4</ele>
        <time>2021-08-18T06:02:29Z</time>
      </trkpt>
      <trkpt lat="51.03512" lon="2.86369">
        <ele>8</ele>
        <time>2021-08-18T06:02:50Z</time>
      </trkpt>
      <trkpt lat="51.03515" lon="2.86331">
        <ele>7.8</ele>
        <time>2021-08-18T06:03:07Z</time>
      </trkpt>
      <trkpt lat="51.03509" lon="2.86289">
        <ele>7.6</ele>
        <time>2021-08-18T06:03:26Z</time>
      </trkpt>
      <trkpt lat="51.03508" lon="2.86232">
        <ele>7.4</ele>
        <time>2021-08-18T06:03:50Z</time>
      </trkpt>
      <trkpt lat="51.03503" lon="2.86196">
        <ele>7.6</ele>
        <time>2021-08-18T06:04:07Z</time>
      </trkpt>
      <trkpt lat="51.03489" lon="2.86154">
        <ele>7.6</ele>
        <time>2021-08-18T06:04:28Z</time>
      </trkpt>
      <trkpt lat="51.03471" lon="2.86108">
        <ele>7.6</ele>
        <time>2021-08-18T06:04:51Z</time>
      </trkpt>
      <trkpt lat="51.03454" lon="2.86069">
        <ele>7.4</ele>
        <time>2021-08-18T06:05:12Z</time>
      </trkpt>
      <trkpt lat="51.03428" lon="2.86033">
        <ele>7.4</ele>
        <time>2021-08-18T06:05:35Z</time>
      </trkpt>
      <trkpt lat="51.03404" lon="2.85997">
        <ele>7.4</ele>
        <time>2021-08-18T06:05:59Z</time>
      </trkpt>
      <trkpt lat="51.03407" lon="2.8596">
        <ele>7.4</ele>
        <time>2021-08-18T06:06:16Z</time>
      </trkpt>
      <trkpt lat="51.03432" lon="2.85921">
        <ele>7.2</ele>
        <time>2021-08-18T06:06:41Z</time>
      </trkpt>
      <trkpt lat="51.03441" lon="2.85904">
        <ele>7.2</ele>
        <time>2021-08-18T06:06:51Z</time>
      </trkpt>
      <trkpt lat="51.03442" lon="2.85903">
        <ele>7.2</ele>
        <time>2021-08-18T06:06:52Z</time>
      </trkpt>
      <trkpt lat="51.03443" lon="2.85901">
        <ele>7.2</ele>
        <time>2021-08-18T06:06:53Z</time>
      </trkpt>
      <trkpt lat="51.03445" lon="2.859">
        <ele>7.2</ele>
        <time>2021-08-18T06:06:54Z</time>
      </trkpt>
      <trkpt lat="51.03446" lon="2.85899">
        <ele>7.2</ele>
        <time>2021-08-18T06:06:55Z</time>
      </trkpt>
      <trkpt lat="51.03466" lon="2.85874">
        <ele>6.8</ele>
        <time>2021-08-18T06:07:14Z</time>
      </trkpt>
      <trkpt lat="51.03489" lon="2.85834">
        <ele>7</ele>
        <time>2021-08-18T06:07:38Z</time>
      </trkpt>
      <trkpt lat="51.03503" lon="2.85801">
        <ele>6.8</ele>
        <time>2021-08-18T06:07:57Z</time>
      </trkpt>
      <trkpt lat="51.03524" lon="2.85748">
        <ele>6.8</ele>
        <time>2021-08-18T06:08:24Z</time>
      </trkpt>
      <trkpt lat="51.03541" lon="2.85717">
        <ele>6.6</ele>
        <time>2021-08-18T06:08:43Z</time>
      </trkpt>
      <trkpt lat="51.03542" lon="2.85715">
        <ele>6.6</ele>
        <time>2021-08-18T06:08:44Z</time>
      </trkpt>
      <trkpt lat="51.03543" lon="2.85713">
        <ele>6.6</ele>
        <time>2021-08-18T06:08:45Z</time>
      </trkpt>
      <trkpt lat="51.03544" lon="2.85711">
        <ele>6.8</ele>
        <time>2021-08-18T06:08:46Z</time>
      </trkpt>
      <trkpt lat="51.03545" lon="2.85709">
        <ele>6.8</ele>
        <time>2021-08-18T06:08:47Z</time>
      </trkpt>
      <trkpt lat="51.03573" lon="2.85668">
        <ele>7</ele>
        <time>2021-08-18T06:09:14Z</time>
      </trkpt>
      <trkpt lat="51.03602" lon="2.85617">
        <ele>6.8</ele>
        <time>2021-08-18T06:09:45Z</time>
      </trkpt>
      <trkpt lat="51.03611" lon="2.85587">
        <ele>7.2</ele>
        <time>2021-08-18T06:10:01Z</time>
      </trkpt>
      <trkpt lat="51.03619" lon="2.85537">
        <ele>6.8</ele>
        <time>2021-08-18T06:10:25Z</time>
      </trkpt>
      <trkpt lat="51.0365" lon="2.85514">
        <ele>6.6</ele>
        <time>2021-08-18T06:10:49Z</time>
      </trkpt>
      <trkpt lat="51.03685" lon="2.85492">
        <ele>6.6</ele>
        <time>2021-08-18T06:11:16Z</time>
      </trkpt>
      <trkpt lat="51.03719" lon="2.8547">
        <ele>6.8</ele>
        <time>2021-08-18T06:11:43Z</time>
      </trkpt>
      <trkpt lat="51.03758" lon="2.85445">
        <ele>6.6</ele>
        <time>2021-08-18T06:12:13Z</time>
      </trkpt>
      <trkpt lat="51.03795" lon="2.8542">
        <ele>6.6</ele>
        <time>2021-08-18T06:12:42Z</time>
      </trkpt>
      <trkpt lat="51.03821" lon="2.85399">
        <ele>6.6</ele>
        <time>2021-08-18T06:13:03Z</time>
      </trkpt>
      <trkpt lat="51.03857" lon="2.85377">
        <ele>6.8</ele>
        <time>2021-08-18T06:13:31Z</time>
      </trkpt>
      <trkpt lat="51.03891" lon="2.85345">
        <ele>6.6</ele>
        <time>2021-08-18T06:14:00Z</time>
      </trkpt>
      <trkpt lat="51.03923" lon="2.85306">
        <ele>6.6</ele>
        <time>2021-08-18T06:14:29Z</time>
      </trkpt>
      <trkpt lat="51.03951" lon="2.85262">
        <ele>6.8</ele>
        <time>2021-08-18T06:14:57Z</time>
      </trkpt>
      <trkpt lat="51.0397" lon="2.85228">
        <ele>7.4</ele>
        <time>2021-08-18T06:15:18Z</time>
      </trkpt>
      <trkpt lat="51.03971" lon="2.85226">
        <ele>7.4</ele>
        <time>2021-08-18T06:15:19Z</time>
      </trkpt>
      <trkpt lat="51.03972" lon="2.85224">
        <ele>7.4</ele>
        <time>2021-08-18T06:15:20Z</time>
      </trkpt>
      <trkpt lat="51.03992" lon="2.85175">
        <ele>7.2</ele>
        <time>2021-08-18T06:15:48Z</time>
      </trkpt>
      <trkpt lat="51.0401" lon="2.85119">
        <ele>7.2</ele>
        <time>2021-08-18T06:16:19Z</time>
      </trkpt>
      <trkpt lat="51.04011" lon="2.85114">
        <ele>7.4</ele>
        <time>2021-08-18T06:16:26Z</time>
      </trkpt>
      <trkpt lat="51.04011" lon="2.85113">
        <ele>7.4</ele>
        <time>2021-08-18T06:16:27Z</time>
      </trkpt>
      <trkpt lat="51.04011" lon="2.85111">
        <ele>7.4</ele>
        <time>2021-08-18T06:16:28Z</time>
      </trkpt>
      <trkpt lat="51.04012" lon="2.85109">
        <ele>7.4</ele>
        <time>2021-08-18T06:16:29Z</time>
      </trkpt>
      <trkpt lat="51.04013" lon="2.85108">
        <ele>7.2</ele>
        <time>2021-08-18T06:16:30Z</time>
      </trkpt>
      <trkpt lat="51.04028" lon="2.85062">
        <ele>6.8</ele>
        <time>2021-08-18T06:16:56Z</time>
      </trkpt>
      <trkpt lat="51.04045" lon="2.85015">
        <ele>7</ele>
        <time>2021-08-18T06:17:23Z</time>
      </trkpt>
      <trkpt lat="51.04066" lon="2.84977">
        <ele>7.2</ele>
        <time>2021-08-18T06:17:47Z</time>
      </trkpt>
      <trkpt lat="51.0409" lon="2.84945">
        <ele>7.6</ele>
        <time>2021-08-18T06:18:11Z</time>
      </trkpt>
      <trkpt lat="51.04111" lon="2.84929">
        <ele>7.6</ele>
        <time>2021-08-18T06:18:28Z</time>
      </trkpt>
      <trkpt lat="51.04112" lon="2.84928">
        <ele>7.6</ele>
        <time>2021-08-18T06:18:29Z</time>
      </trkpt>
      <trkpt lat="51.04113" lon="2.84927">
        <ele>7.6</ele>
        <time>2021-08-18T06:18:30Z</time>
      </trkpt>
      <trkpt lat="51.04114" lon="2.84926">
        <ele>7.6</ele>
        <time>2021-08-18T06:18:31Z</time>
      </trkpt>
      <trkpt lat="51.04115" lon="2.84925">
        <ele>7.6</ele>
        <time>2021-08-18T06:18:32Z</time>
      </trkpt>
      <trkpt lat="51.04147" lon="2.84907">
        <ele>7.6</ele>
        <time>2021-08-18T06:18:57Z</time>
      </trkpt>
      <trkpt lat="51.04185" lon="2.84888">
        <ele>7.6</ele>
        <time>2021-08-18T06:19:26Z</time>
      </trkpt>
      <trkpt lat="51.0423" lon="2.84863">
        <ele>7.6</ele>
        <time>2021-08-18T06:20:01Z</time>
      </trkpt>
      <trkpt lat="51.04261" lon="2.84836">
        <ele>7.2</ele>
        <time>2021-08-18T06:20:28Z</time>
      </trkpt>
      <trkpt lat="51.04294" lon="2.84801">
        <ele>7.6</ele>
        <time>2021-08-18T06:20:58Z</time>
      </trkpt>
      <trkpt lat="51.04321" lon="2.84762">
        <ele>7.6</ele>
        <time>2021-08-18T06:21:24Z</time>
      </trkpt>
      <trkpt lat="51.04348" lon="2.84716">
        <ele>7.4</ele>
        <time>2021-08-18T06:21:53Z</time>
      </trkpt>
      <trkpt lat="51.04375" lon="2.84668">
        <ele>7.2</ele>
        <time>2021-08-18T06:22:23Z</time>
      </trkpt>
      <trkpt lat="51.04402" lon="2.84619">
        <ele>7</ele>
        <time>2021-08-18T06:22:53Z</time>
      </trkpt>
      <trkpt lat="51.04428" lon="2.84569">
        <ele>7.2</ele>
        <time>2021-08-18T06:23:22Z</time>
      </trkpt>
      <trkpt lat="51.04454" lon="2.84536">
        <ele>7</ele>
        <time>2021-08-18T06:23:47Z</time>
      </trkpt>
      <trkpt lat="51.04485" lon="2.84504">
        <ele>7.2</ele>
        <time>2021-08-18T06:24:14Z</time>
      </trkpt>
      <trkpt lat="51.04521" lon="2.84479">
        <ele>7.2</ele>
        <time>2021-08-18T06:24:42Z</time>
      </trkpt>
      <trkpt lat="51.04568" lon="2.84466">
        <ele>7.4</ele>
        <time>2021-08-18T06:25:15Z</time>
      </trkpt>
      <trkpt lat="51.04612" lon="2.84468">
        <ele>7.2</ele>
        <time>2021-08-18T06:25:46Z</time>
      </trkpt>
      <trkpt lat="51.04653" lon="2.84482">
        <ele>7.6</ele>
        <time>2021-08-18T06:26:16Z</time>
      </trkpt>
      <trkpt lat="51.04692" lon="2.84511">
        <ele>7.4</ele>
        <time>2021-08-18T06:26:46Z</time>
      </trkpt>
      <trkpt lat="51.04726" lon="2.8455">
        <ele>7.4</ele>
        <time>2021-08-18T06:27:14Z</time>
      </trkpt>
      <trkpt lat="51.04754" lon="2.84591">
        <ele>6.8</ele>
        <time>2021-08-18T06:27:40Z</time>
      </trkpt>
      <trkpt lat="51.04783" lon="2.84629">
        <ele>6.8</ele>
        <time>2021-08-18T06:28:06Z</time>
      </trkpt>
      <trkpt lat="51.04815" lon="2.84667">
        <ele>6.6</ele>
        <time>2021-08-18T06:28:34Z</time>
      </trkpt>
      <trkpt lat="51.04852" lon="2.84696">
        <ele>6.2</ele>
        <time>2021-08-18T06:29:03Z</time>
      </trkpt>
      <trkpt lat="51.04888" lon="2.84725">
        <ele>6.4</ele>
        <time>2021-08-18T06:29:33Z</time>
      </trkpt>
      <trkpt lat="51.04928" lon="2.84753">
        <ele>6.2</ele>
        <time>2021-08-18T06:30:04Z</time>
      </trkpt>
      <trkpt lat="51.04969" lon="2.84781">
        <ele>6.4</ele>
        <time>2021-08-18T06:30:36Z</time>
      </trkpt>
      <trkpt lat="51.05012" lon="2.84809">
        <ele>6.4</ele>
        <time>2021-08-18T06:31:10Z</time>
      </trkpt>
      <trkpt lat="51.05053" lon="2.84836">
        <ele>6.4</ele>
        <time>2021-08-18T06:31:40Z</time>
      </trkpt>
      <trkpt lat="51.051" lon="2.84866">
        <ele>6.2</ele>
        <time>2021-08-18T06:32:16Z</time>
      </trkpt>
      <trkpt lat="51.0514" lon="2.8489">
        <ele>6.4</ele>
        <time>2021-08-18T06:32:46Z</time>
      </trkpt>
      <trkpt lat="51.05177" lon="2.84913">
        <ele>6.2</ele>
        <time>2021-08-18T06:33:14Z</time>
      </trkpt>
      <trkpt lat="51.05223" lon="2.84943">
        <ele>6.4</ele>
        <time>2021-08-18T06:33:49Z</time>
      </trkpt>
      <trkpt lat="51.05269" lon="2.84962">
        <ele>6</ele>
        <time>2021-08-18T06:34:23Z</time>
      </trkpt>
      <trkpt lat="51.05308" lon="2.84967">
        <ele>6</ele>
        <time>2021-08-18T06:34:51Z</time>
      </trkpt>
      <trkpt lat="51.0534" lon="2.84966">
        <ele>6</ele>
        <time>2021-08-18T06:35:14Z</time>
      </trkpt>
      <trkpt lat="51.05357" lon="2.84964">
        <ele>6.2</ele>
        <time>2021-08-18T06:35:27Z</time>
      </trkpt>
      <trkpt lat="51.05359" lon="2.84964">
        <ele>6.2</ele>
        <time>2021-08-18T06:35:29Z</time>
      </trkpt>
      <trkpt lat="51.0536" lon="2.84963">
        <ele>6</ele>
        <time>2021-08-18T06:35:30Z</time>
      </trkpt>
      <trkpt lat="51.05362" lon="2.84963">
        <ele>5.8</ele>
        <time>2021-08-18T06:35:31Z</time>
      </trkpt>
      <trkpt lat="51.05363" lon="2.84964">
        <ele>5.6</ele>
        <time>2021-08-18T06:35:32Z</time>
      </trkpt>
      <trkpt lat="51.05362" lon="2.84967">
        <ele>5.4</ele>
        <time>2021-08-18T06:35:42Z</time>
      </trkpt>
      <trkpt lat="51.05361" lon="2.84967">
        <ele>5</ele>
        <time>2021-08-18T06:36:25Z</time>
      </trkpt>
      <trkpt lat="51.05362" lon="2.84967">
        <ele>1.2</ele>
        <time>2021-08-18T06:36:43Z</time>
      </trkpt>
      <trkpt lat="51.05362" lon="2.84967">
        <ele>0.60000000000002</ele>
        <time>2021-08-18T06:36:45Z</time>
      </trkpt>
      <trkpt lat="51.05362" lon="2.84967">
        <ele>4.8</ele>
        <time>2021-08-18T06:36:47Z</time>
      </trkpt>
      <trkpt lat="51.05362" lon="2.84967">
        <ele>8</ele>
        <time>2021-08-18T06:36:50Z</time>
      </trkpt>
      <trkpt lat="51.05366" lon="2.84966">
        <ele>6.6</ele>
        <time>2021-08-18T06:36:59Z</time>
      </trkpt>
      <trkpt lat="51.05367" lon="2.84966">
        <ele>6.4</ele>
        <time>2021-08-18T06:37:00Z</time>
      </trkpt>
      <trkpt lat="51.05369" lon="2.84966">
        <ele>6</ele>
        <time>2021-08-18T06:37:01Z</time>
      </trkpt>
      <trkpt lat="51.0537" lon="2.84965">
        <ele>5.8</ele>
        <time>2021-08-18T06:37:02Z</time>
      </trkpt>
      <trkpt lat="51.05371" lon="2.84964">
        <ele>5.8</ele>
        <time>2021-08-18T06:37:03Z</time>
      </trkpt>
      <trkpt lat="51.05373" lon="2.84963">
        <ele>5.8</ele>
        <time>2021-08-18T06:37:04Z</time>
      </trkpt>
      <trkpt lat="51.05374" lon="2.84962">
        <ele>5.6</ele>
        <time>2021-08-18T06:37:05Z</time>
      </trkpt>
      <trkpt lat="51.05375" lon="2.84961">
        <ele>5.8</ele>
        <time>2021-08-18T06:37:06Z</time>
      </trkpt>
      <trkpt lat="51.05376" lon="2.8496">
        <ele>6.2</ele>
        <time>2021-08-18T06:37:07Z</time>
      </trkpt>
      <trkpt lat="51.05396" lon="2.84949">
        <ele>6.4</ele>
        <time>2021-08-18T06:37:24Z</time>
      </trkpt>
      <trkpt lat="51.05426" lon="2.84938">
        <ele>6.4</ele>
        <time>2021-08-18T06:37:45Z</time>
      </trkpt>
      <trkpt lat="51.05456" lon="2.84907">
        <ele>6.4</ele>
        <time>2021-08-18T06:38:10Z</time>
      </trkpt>
      <trkpt lat="51.05484" lon="2.84882">
        <ele>6.4</ele>
        <time>2021-08-18T06:38:31Z</time>
      </trkpt>
      <trkpt lat="51.05526" lon="2.84865">
        <ele>6.2</ele>
        <time>2021-08-18T06:39:00Z</time>
      </trkpt>
      <trkpt lat="51.0557" lon="2.84858">
        <ele>6</ele>
        <time>2021-08-18T06:39:30Z</time>
      </trkpt>
      <trkpt lat="51.05616" lon="2.84857">
        <ele>6.2</ele>
        <time>2021-08-18T06:40:01Z</time>
      </trkpt>
      <trkpt lat="51.05662" lon="2.84857">
        <ele>6</ele>
        <time>2021-08-18T06:40:33Z</time>
      </trkpt>
      <trkpt lat="51.05704" lon="2.8486">
        <ele>6.4</ele>
        <time>2021-08-18T06:41:02Z</time>
      </trkpt>
      <trkpt lat="51.0574" lon="2.8486">
        <ele>6.2</ele>
        <time>2021-08-18T06:41:27Z</time>
      </trkpt>
      <trkpt lat="51.05786" lon="2.8486">
        <ele>6.2</ele>
        <time>2021-08-18T06:41:59Z</time>
      </trkpt>
      <trkpt lat="51.05825" lon="2.84866">
        <ele>6.2</ele>
        <time>2021-08-18T06:42:26Z</time>
      </trkpt>
      <trkpt lat="51.05861" lon="2.84886">
        <ele>6</ele>
        <time>2021-08-18T06:42:52Z</time>
      </trkpt>
      <trkpt lat="51.05894" lon="2.84928">
        <ele>5.8</ele>
        <time>2021-08-18T06:43:21Z</time>
      </trkpt>
      <trkpt lat="51.05914" lon="2.84972">
        <ele>5.8</ele>
        <time>2021-08-18T06:43:45Z</time>
      </trkpt>
      <trkpt lat="51.05939" lon="2.85005">
        <ele>6</ele>
        <time>2021-08-18T06:44:07Z</time>
      </trkpt>
      <trkpt lat="51.05972" lon="2.85025">
        <ele>6.2</ele>
        <time>2021-08-18T06:44:32Z</time>
      </trkpt>
      <trkpt lat="51.06001" lon="2.85043">
        <ele>6</ele>
        <time>2021-08-18T06:44:53Z</time>
      </trkpt>
      <trkpt lat="51.06038" lon="2.85059">
        <ele>6.2</ele>
        <time>2021-08-18T06:45:19Z</time>
      </trkpt>
      <trkpt lat="51.06077" lon="2.85072">
        <ele>6.2</ele>
        <time>2021-08-18T06:45:47Z</time>
      </trkpt>
      <trkpt lat="51.06118" lon="2.85076">
        <ele>6.4</ele>
        <time>2021-08-18T06:46:17Z</time>
      </trkpt>
      <trkpt lat="51.06157" lon="2.85079">
        <ele>6.2</ele>
        <time>2021-08-18T06:46:44Z</time>
      </trkpt>
      <trkpt lat="51.06203" lon="2.85086">
        <ele>6.2</ele>
        <time>2021-08-18T06:47:16Z</time>
      </trkpt>
      <trkpt lat="51.06221" lon="2.85117">
        <ele>5.4</ele>
        <time>2021-08-18T06:47:36Z</time>
      </trkpt>
      <trkpt lat="51.06217" lon="2.85179">
        <ele>4.8</ele>
        <time>2021-08-18T06:48:03Z</time>
      </trkpt>
      <trkpt lat="51.06231" lon="2.85244">
        <ele>4.6</ele>
        <time>2021-08-18T06:48:32Z</time>
      </trkpt>
      <trkpt lat="51.06239" lon="2.85302">
        <ele>4.4</ele>
        <time>2021-08-18T06:48:57Z</time>
      </trkpt>
      <trkpt lat="51.06227" lon="2.85363">
        <ele>4.6</ele>
        <time>2021-08-18T06:49:25Z</time>
      </trkpt>
      <trkpt lat="51.06223" lon="2.85427">
        <ele>4.2</ele>
        <time>2021-08-18T06:49:54Z</time>
      </trkpt>
      <trkpt lat="51.0622" lon="2.85487">
        <ele>4</ele>
        <time>2021-08-18T06:50:21Z</time>
      </trkpt>
      <trkpt lat="51.06216" lon="2.85556">
        <ele>4</ele>
        <time>2021-08-18T06:50:52Z</time>
      </trkpt>
      <trkpt lat="51.06227" lon="2.85619">
        <ele>4</ele>
        <time>2021-08-18T06:51:21Z</time>
      </trkpt>
      <trkpt lat="51.06222" lon="2.85687">
        <ele>4.2</ele>
        <time>2021-08-18T06:51:51Z</time>
      </trkpt>
      <trkpt lat="51.06215" lon="2.85747">
        <ele>4</ele>
        <time>2021-08-18T06:52:18Z</time>
      </trkpt>
      <trkpt lat="51.0622" lon="2.8581">
        <ele>4</ele>
        <time>2021-08-18T06:52:46Z</time>
      </trkpt>
      <trkpt lat="51.06224" lon="2.85857">
        <ele>4</ele>
        <time>2021-08-18T06:53:06Z</time>
      </trkpt>
      <trkpt lat="51.06229" lon="2.85909">
        <ele>4</ele>
        <time>2021-08-18T06:53:28Z</time>
      </trkpt>
      <trkpt lat="51.06234" lon="2.85956">
        <ele>4</ele>
        <time>2021-08-18T06:53:49Z</time>
      </trkpt>
      <trkpt lat="51.0624" lon="2.86025">
        <ele>4</ele>
        <time>2021-08-18T06:54:20Z</time>
      </trkpt>
      <trkpt lat="51.06246" lon="2.86087">
        <ele>4</ele>
        <time>2021-08-18T06:54:48Z</time>
      </trkpt>
      <trkpt lat="51.06252" lon="2.86144">
        <ele>4.2</ele>
        <time>2021-08-18T06:55:14Z</time>
      </trkpt>
      <trkpt lat="51.06258" lon="2.86216">
        <ele>4.2</ele>
        <time>2021-08-18T06:55:46Z</time>
      </trkpt>
      <trkpt lat="51.06265" lon="2.86288">
        <ele>4</ele>
        <time>2021-08-18T06:56:19Z</time>
      </trkpt>
      <trkpt lat="51.0627" lon="2.8635">
        <ele>4.2</ele>
        <time>2021-08-18T06:56:47Z</time>
      </trkpt>
      <trkpt lat="51.06276" lon="2.86395">
        <ele>4.4</ele>
        <time>2021-08-18T06:57:07Z</time>
      </trkpt>
      <trkpt lat="51.06282" lon="2.86447">
        <ele>5</ele>
        <time>2021-08-18T06:57:29Z</time>
      </trkpt>
      <trkpt lat="51.06293" lon="2.86497">
        <ele>5.2</ele>
        <time>2021-08-18T06:57:53Z</time>
      </trkpt>
      <trkpt lat="51.0631" lon="2.86559">
        <ele>5.4</ele>
        <time>2021-08-18T06:58:24Z</time>
      </trkpt>
      <trkpt lat="51.06334" lon="2.86602">
        <ele>5.6</ele>
        <time>2021-08-18T06:58:50Z</time>
      </trkpt>
      <trkpt lat="51.06364" lon="2.86648">
        <ele>5.8</ele>
        <time>2021-08-18T06:59:20Z</time>
      </trkpt>
      <trkpt lat="51.06394" lon="2.86695">
        <ele>5.8</ele>
        <time>2021-08-18T06:59:51Z</time>
      </trkpt>
      <trkpt lat="51.06426" lon="2.86746">
        <ele>6.2</ele>
        <time>2021-08-18T07:00:24Z</time>
      </trkpt>
      <trkpt lat="51.0645" lon="2.86797">
        <ele>6.2</ele>
        <time>2021-08-18T07:00:53Z</time>
      </trkpt>
      <trkpt lat="51.06457" lon="2.86852">
        <ele>6.4</ele>
        <time>2021-08-18T07:01:18Z</time>
      </trkpt>
      <trkpt lat="51.06457" lon="2.86919">
        <ele>7</ele>
        <time>2021-08-18T07:01:48Z</time>
      </trkpt>
      <trkpt lat="51.06455" lon="2.86993">
        <ele>7.2</ele>
        <time>2021-08-18T07:02:21Z</time>
      </trkpt>
      <trkpt lat="51.06453" lon="2.87055">
        <ele>7.2</ele>
        <time>2021-08-18T07:02:49Z</time>
      </trkpt>
      <trkpt lat="51.0645" lon="2.8712">
        <ele>7.4</ele>
        <time>2021-08-18T07:03:18Z</time>
      </trkpt>
      <trkpt lat="51.06447" lon="2.87174">
        <ele>7.2</ele>
        <time>2021-08-18T07:03:43Z</time>
      </trkpt>
      <trkpt lat="51.06447" lon="2.87235">
        <ele>7.4</ele>
        <time>2021-08-18T07:04:11Z</time>
      </trkpt>
      <trkpt lat="51.06449" lon="2.87303">
        <ele>7.8</ele>
        <time>2021-08-18T07:04:42Z</time>
      </trkpt>
      <trkpt lat="51.06453" lon="2.8736">
        <ele>7.6</ele>
        <time>2021-08-18T07:05:08Z</time>
      </trkpt>
      <trkpt lat="51.0646" lon="2.87423">
        <ele>7.8</ele>
        <time>2021-08-18T07:05:37Z</time>
      </trkpt>
      <trkpt lat="51.06473" lon="2.87485">
        <ele>8</ele>
        <time>2021-08-18T07:06:07Z</time>
      </trkpt>
      <trkpt lat="51.06487" lon="2.87541">
        <ele>8.4</ele>
        <time>2021-08-18T07:06:35Z</time>
      </trkpt>
      <trkpt lat="51.06498" lon="2.87595">
        <ele>8.6</ele>
        <time>2021-08-18T07:07:01Z</time>
      </trkpt>
      <trkpt lat="51.06504" lon="2.87638">
        <ele>8.6</ele>
        <time>2021-08-18T07:07:20Z</time>
      </trkpt>
      <trkpt lat="51.06513" lon="2.87687">
        <ele>8.6</ele>
        <time>2021-08-18T07:07:43Z</time>
      </trkpt>
      <trkpt lat="51.06525" lon="2.87757">
        <ele>8.8</ele>
        <time>2021-08-18T07:08:16Z</time>
      </trkpt>
      <trkpt lat="51.06541" lon="2.87814">
        <ele>8.8</ele>
        <time>2021-08-18T07:08:44Z</time>
      </trkpt>
      <trkpt lat="51.06557" lon="2.87859">
        <ele>9</ele>
        <time>2021-08-18T07:09:07Z</time>
      </trkpt>
      <trkpt lat="51.06553" lon="2.87902">
        <ele>9.2</ele>
        <time>2021-08-18T07:09:28Z</time>
      </trkpt>
      <trkpt lat="51.06526" lon="2.87955">
        <ele>8.8</ele>
        <time>2021-08-18T07:09:58Z</time>
      </trkpt>
      <trkpt lat="51.06501" lon="2.88005">
        <ele>8.4</ele>
        <time>2021-08-18T07:10:26Z</time>
      </trkpt>
      <trkpt lat="51.06474" lon="2.88059">
        <ele>8.4</ele>
        <time>2021-08-18T07:10:56Z</time>
      </trkpt>
      <trkpt lat="51.0645" lon="2.88107">
        <ele>8</ele>
        <time>2021-08-18T07:11:23Z</time>
      </trkpt>
      <trkpt lat="51.0643" lon="2.88137">
        <ele>7.8</ele>
        <time>2021-08-18T07:11:43Z</time>
      </trkpt>
      <trkpt lat="51.06408" lon="2.8818">
        <ele>7.4</ele>
        <time>2021-08-18T07:12:09Z</time>
      </trkpt>
      <trkpt lat="51.06386" lon="2.88223">
        <ele>7.2</ele>
        <time>2021-08-18T07:12:35Z</time>
      </trkpt>
      <trkpt lat="51.06364" lon="2.88269">
        <ele>7.2</ele>
        <time>2021-08-18T07:13:02Z</time>
      </trkpt>
      <trkpt lat="51.06347" lon="2.88303">
        <ele>7.6</ele>
        <time>2021-08-18T07:13:21Z</time>
      </trkpt>
      <trkpt lat="51.06322" lon="2.88343">
        <ele>7.6</ele>
        <time>2021-08-18T07:13:46Z</time>
      </trkpt>
      <trkpt lat="51.06305" lon="2.8837">
        <ele>7.4</ele>
        <time>2021-08-18T07:14:07Z</time>
      </trkpt>
      <trkpt lat="51.06299" lon="2.88378">
        <ele>7.4</ele>
        <time>2021-08-18T07:14:22Z</time>
      </trkpt>
      <trkpt lat="51.06295" lon="2.88385">
        <ele>7.4</ele>
        <time>2021-08-18T07:14:37Z</time>
      </trkpt>
      <trkpt lat="51.0629" lon="2.88393">
        <ele>7.2</ele>
        <time>2021-08-18T07:14:52Z</time>
      </trkpt>
      <trkpt lat="51.06287" lon="2.88398">
        <ele>7.2</ele>
        <time>2021-08-18T07:14:59Z</time>
      </trkpt>
      <trkpt lat="51.06286" lon="2.88399">
        <ele>7</ele>
        <time>2021-08-18T07:15:00Z</time>
      </trkpt>
      <trkpt lat="51.06285" lon="2.88401">
        <ele>6.8</ele>
        <time>2021-08-18T07:15:01Z</time>
      </trkpt>
      <trkpt lat="51.06284" lon="2.88402">
        <ele>6.6</ele>
        <time>2021-08-18T07:15:02Z</time>
      </trkpt>
      <trkpt lat="51.06283" lon="2.88404">
        <ele>6.6</ele>
        <time>2021-08-18T07:15:03Z</time>
      </trkpt>
      <trkpt lat="51.06282" lon="2.88405">
        <ele>6.6</ele>
        <time>2021-08-18T07:15:04Z</time>
      </trkpt>
      <trkpt lat="51.06248" lon="2.88439">
        <ele>7.4</ele>
        <time>2021-08-18T07:15:32Z</time>
      </trkpt>
      <trkpt lat="51.06215" lon="2.88475">
        <ele>7.2</ele>
        <time>2021-08-18T07:16:00Z</time>
      </trkpt>
      <trkpt lat="51.06194" lon="2.88489">
        <ele>7.6</ele>
        <time>2021-08-18T07:16:18Z</time>
      </trkpt>
      <trkpt lat="51.06172" lon="2.88497">
        <ele>7.8</ele>
        <time>2021-08-18T07:16:39Z</time>
      </trkpt>
      <trkpt lat="51.06166" lon="2.88501">
        <ele>7.6</ele>
        <time>2021-08-18T07:16:53Z</time>
      </trkpt>
      <trkpt lat="51.06162" lon="2.88504">
        <ele>7.6</ele>
        <time>2021-08-18T07:16:59Z</time>
      </trkpt>
      <trkpt lat="51.06161" lon="2.88505">
        <ele>7.6</ele>
        <time>2021-08-18T07:17:00Z</time>
      </trkpt>
      <trkpt lat="51.0616" lon="2.88506">
        <ele>7.6</ele>
        <time>2021-08-18T07:17:01Z</time>
      </trkpt>
      <trkpt lat="51.06144" lon="2.88525">
        <ele>8.2</ele>
        <time>2021-08-18T07:17:16Z</time>
      </trkpt>
      <trkpt lat="51.06128" lon="2.88552">
        <ele>8.6</ele>
        <time>2021-08-18T07:17:33Z</time>
      </trkpt>
      <trkpt lat="51.06096" lon="2.88584">
        <ele>8.8</ele>
        <time>2021-08-18T07:18:00Z</time>
      </trkpt>
      <trkpt lat="51.06063" lon="2.88609">
        <ele>9.2</ele>
        <time>2021-08-18T07:18:26Z</time>
      </trkpt>
      <trkpt lat="51.0603" lon="2.88632">
        <ele>9.2</ele>
        <time>2021-08-18T07:18:51Z</time>
      </trkpt>
      <trkpt lat="51.06001" lon="2.88627">
        <ele>9.6</ele>
        <time>2021-08-18T07:19:14Z</time>
      </trkpt>
      <trkpt lat="51.05982" lon="2.88569">
        <ele>10</ele>
        <time>2021-08-18T07:19:39Z</time>
      </trkpt>
      <trkpt lat="51.05978" lon="2.88545">
        <ele>9.6</ele>
        <time>2021-08-18T07:19:50Z</time>
      </trkpt>
      <trkpt lat="51.05977" lon="2.88545">
        <ele>9.6</ele>
        <time>2021-08-18T07:19:51Z</time>
      </trkpt>
      <trkpt lat="51.05946" lon="2.88549">
        <ele>9.2</ele>
        <time>2021-08-18T07:20:12Z</time>
      </trkpt>
      <trkpt lat="51.05915" lon="2.88551">
        <ele>8.6</ele>
        <time>2021-08-18T07:20:33Z</time>
      </trkpt>
      <trkpt lat="51.05883" lon="2.88552">
        <ele>8.4</ele>
        <time>2021-08-18T07:20:55Z</time>
      </trkpt>
      <trkpt lat="51.05853" lon="2.88562">
        <ele>8.4</ele>
        <time>2021-08-18T07:21:17Z</time>
      </trkpt>
      <trkpt lat="51.05849" lon="2.88565">
        <ele>8.6</ele>
        <time>2021-08-18T07:21:21Z</time>
      </trkpt>
      <trkpt lat="51.05848" lon="2.88567">
        <ele>8.6</ele>
        <time>2021-08-18T07:21:22Z</time>
      </trkpt>
      <trkpt lat="51.05847" lon="2.88568">
        <ele>8.4</ele>
        <time>2021-08-18T07:21:23Z</time>
      </trkpt>
      <trkpt lat="51.05846" lon="2.8857">
        <ele>8.4</ele>
        <time>2021-08-18T07:21:24Z</time>
      </trkpt>
      <trkpt lat="51.05845" lon="2.88573">
        <ele>8.4</ele>
        <time>2021-08-18T07:21:25Z</time>
      </trkpt>
      <trkpt lat="51.05845" lon="2.88575">
        <ele>8.4</ele>
        <time>2021-08-18T07:21:26Z</time>
      </trkpt>
      <trkpt lat="51.05845" lon="2.88577">
        <ele>8.4</ele>
        <time>2021-08-18T07:21:27Z</time>
      </trkpt>
      <trkpt lat="51.05859" lon="2.88623">
        <ele>8.4</ele>
        <time>2021-08-18T07:21:49Z</time>
      </trkpt>
      <trkpt lat="51.05873" lon="2.88672">
        <ele>8.6</ele>
        <time>2021-08-18T07:22:12Z</time>
      </trkpt>
      <trkpt lat="51.05863" lon="2.88699">
        <ele>8.4</ele>
        <time>2021-08-18T07:22:26Z</time>
      </trkpt>
      <trkpt lat="51.05838" lon="2.88716">
        <ele>8.2</ele>
        <time>2021-08-18T07:22:46Z</time>
      </trkpt>
      <trkpt lat="51.0582" lon="2.88725">
        <ele>8</ele>
        <time>2021-08-18T07:23:01Z</time>
      </trkpt>
      <trkpt lat="51.05785" lon="2.88722">
        <ele>8</ele>
        <time>2021-08-18T07:23:25Z</time>
      </trkpt>
      <trkpt lat="51.05783" lon="2.88724">
        <ele>8</ele>
        <time>2021-08-18T07:23:26Z</time>
      </trkpt>
      <trkpt lat="51.05783" lon="2.88726">
        <ele>7.8</ele>
        <time>2021-08-18T07:23:27Z</time>
      </trkpt>
      <trkpt lat="51.05782" lon="2.88728">
        <ele>7.8</ele>
        <time>2021-08-18T07:23:28Z</time>
      </trkpt>
      <trkpt lat="51.05782" lon="2.8873">
        <ele>7.8</ele>
        <time>2021-08-18T07:23:29Z</time>
      </trkpt>
      <trkpt lat="51.05781" lon="2.88732">
        <ele>7.8</ele>
        <time>2021-08-18T07:23:30Z</time>
      </trkpt>
      <trkpt lat="51.05777" lon="2.88769">
        <ele>6.8</ele>
        <time>2021-08-18T07:23:47Z</time>
      </trkpt>
      <trkpt lat="51.05776" lon="2.88807">
        <ele>6</ele>
        <time>2021-08-18T07:24:05Z</time>
      </trkpt>
      <trkpt lat="51.0576" lon="2.8885">
        <ele>5.4</ele>
        <time>2021-08-18T07:24:26Z</time>
      </trkpt>
      <trkpt lat="51.05743" lon="2.88894">
        <ele>5.4</ele>
        <time>2021-08-18T07:24:51Z</time>
      </trkpt>
      <trkpt lat="51.05741" lon="2.88896">
        <ele>5.4</ele>
        <time>2021-08-18T07:24:53Z</time>
      </trkpt>
      <trkpt lat="51.05738" lon="2.88901">
        <ele>5.4</ele>
        <time>2021-08-18T07:24:57Z</time>
      </trkpt>
      <trkpt lat="51.05716" lon="2.88935">
        <ele>5.8</ele>
        <time>2021-08-18T07:25:20Z</time>
      </trkpt>
      <trkpt lat="51.05692" lon="2.88974">
        <ele>6.2</ele>
        <time>2021-08-18T07:25:46Z</time>
      </trkpt>
      <trkpt lat="51.05692" lon="2.88976">
        <ele>6.4</ele>
        <time>2021-08-18T07:25:47Z</time>
      </trkpt>
      <trkpt lat="51.05697" lon="2.88981">
        <ele>6.6</ele>
        <time>2021-08-18T07:25:53Z</time>
      </trkpt>
      <trkpt lat="51.05721" lon="2.89006">
        <ele>6.8</ele>
        <time>2021-08-18T07:26:15Z</time>
      </trkpt>
      <trkpt lat="51.05743" lon="2.89052">
        <ele>7</ele>
        <time>2021-08-18T07:26:41Z</time>
      </trkpt>
      <trkpt lat="51.05763" lon="2.89105">
        <ele>7.4</ele>
        <time>2021-08-18T07:27:08Z</time>
      </trkpt>
      <trkpt lat="51.05785" lon="2.89158">
        <ele>7.2</ele>
        <time>2021-08-18T07:27:35Z</time>
      </trkpt>
      <trkpt lat="51.05802" lon="2.89218">
        <ele>7</ele>
        <time>2021-08-18T07:28:04Z</time>
      </trkpt>
      <trkpt lat="51.05806" lon="2.89278">
        <ele>7.6</ele>
        <time>2021-08-18T07:28:31Z</time>
      </trkpt>
      <trkpt lat="51.05813" lon="2.89349">
        <ele>8</ele>
        <time>2021-08-18T07:29:03Z</time>
      </trkpt>
      <trkpt lat="51.05817" lon="2.89377">
        <ele>8</ele>
        <time>2021-08-18T07:29:15Z</time>
      </trkpt>
      <trkpt lat="51.05814" lon="2.89381">
        <ele>8</ele>
        <time>2021-08-18T07:29:17Z</time>
      </trkpt>
      <trkpt lat="51.05812" lon="2.89383">
        <ele>8</ele>
        <time>2021-08-18T07:29:19Z</time>
      </trkpt>
      <trkpt lat="51.05765" lon="2.89416">
        <ele>8.4</ele>
        <time>2021-08-18T07:29:54Z</time>
      </trkpt>
      <trkpt lat="51.0573" lon="2.89446">
        <ele>8.6</ele>
        <time>2021-08-18T07:30:22Z</time>
      </trkpt>
      <trkpt lat="51.05698" lon="2.8948">
        <ele>9</ele>
        <time>2021-08-18T07:30:49Z</time>
      </trkpt>
      <trkpt lat="51.05662" lon="2.8952">
        <ele>9</ele>
        <time>2021-08-18T07:31:20Z</time>
      </trkpt>
      <trkpt lat="51.05654" lon="2.8956">
        <ele>9.4</ele>
        <time>2021-08-18T07:31:42Z</time>
      </trkpt>
      <trkpt lat="51.05668" lon="2.89613">
        <ele>9.6</ele>
        <time>2021-08-18T07:32:08Z</time>
      </trkpt>
      <trkpt lat="51.05681" lon="2.89656">
        <ele>9.8</ele>
        <time>2021-08-18T07:32:29Z</time>
      </trkpt>
      <trkpt lat="51.05698" lon="2.89706">
        <ele>10.2</ele>
        <time>2021-08-18T07:32:54Z</time>
      </trkpt>
      <trkpt lat="51.05724" lon="2.89756">
        <ele>10.4</ele>
        <time>2021-08-18T07:33:23Z</time>
      </trkpt>
      <trkpt lat="51.05749" lon="2.8981">
        <ele>10.4</ele>
        <time>2021-08-18T07:33:53Z</time>
      </trkpt>
      <trkpt lat="51.05778" lon="2.89846">
        <ele>10.6</ele>
        <time>2021-08-18T07:34:20Z</time>
      </trkpt>
      <trkpt lat="51.05815" lon="2.89879">
        <ele>10.6</ele>
        <time>2021-08-18T07:34:51Z</time>
      </trkpt>
      <trkpt lat="51.05853" lon="2.89909">
        <ele>11.2</ele>
        <time>2021-08-18T07:35:22Z</time>
      </trkpt>
      <trkpt lat="51.05879" lon="2.89933">
        <ele>11.2</ele>
        <time>2021-08-18T07:35:43Z</time>
      </trkpt>
      <trkpt lat="51.05907" lon="2.89965">
        <ele>11.2</ele>
        <time>2021-08-18T07:36:07Z</time>
      </trkpt>
      <trkpt lat="51.05926" lon="2.90019">
        <ele>11.4</ele>
        <time>2021-08-18T07:36:35Z</time>
      </trkpt>
      <trkpt lat="51.0591" lon="2.9005">
        <ele>11.6</ele>
        <time>2021-08-18T07:36:52Z</time>
      </trkpt>
      <trkpt lat="51.05875" lon="2.90101">
        <ele>11.6</ele>
        <time>2021-08-18T07:37:25Z</time>
      </trkpt>
      <trkpt lat="51.05846" lon="2.90149">
        <ele>11.4</ele>
        <time>2021-08-18T07:37:55Z</time>
      </trkpt>
      <trkpt lat="51.05866" lon="2.90177">
        <ele>11.4</ele>
        <time>2021-08-18T07:38:14Z</time>
      </trkpt>
      <trkpt lat="51.05889" lon="2.90228">
        <ele>11.6</ele>
        <time>2021-08-18T07:38:42Z</time>
      </trkpt>
      <trkpt lat="51.05912" lon="2.90287">
        <ele>11.8</ele>
        <time>2021-08-18T07:39:12Z</time>
      </trkpt>
      <trkpt lat="51.05929" lon="2.90339">
        <ele>12.4</ele>
        <time>2021-08-18T07:39:38Z</time>
      </trkpt>
      <trkpt lat="51.05934" lon="2.90405">
        <ele>12.6</ele>
        <time>2021-08-18T07:40:07Z</time>
      </trkpt>
      <trkpt lat="51.05935" lon="2.90476">
        <ele>13</ele>
        <time>2021-08-18T07:40:38Z</time>
      </trkpt>
      <trkpt lat="51.05942" lon="2.90537">
        <ele>12.8</ele>
        <time>2021-08-18T07:41:05Z</time>
      </trkpt>
      <trkpt lat="51.05961" lon="2.90602">
        <ele>13.2</ele>
        <time>2021-08-18T07:41:37Z</time>
      </trkpt>
      <trkpt lat="51.05987" lon="2.90658">
        <ele>13.6</ele>
        <time>2021-08-18T07:42:08Z</time>
      </trkpt>
      <trkpt lat="51.06007" lon="2.90708">
        <ele>13.6</ele>
        <time>2021-08-18T07:42:34Z</time>
      </trkpt>
      <trkpt lat="51.06021" lon="2.90753">
        <ele>13.4</ele>
        <time>2021-08-18T07:42:56Z</time>
      </trkpt>
      <trkpt lat="51.06028" lon="2.90813">
        <ele>13.6</ele>
        <time>2021-08-18T07:43:23Z</time>
      </trkpt>
      <trkpt lat="51.06027" lon="2.9087">
        <ele>13.6</ele>
        <time>2021-08-18T07:43:48Z</time>
      </trkpt>
      <trkpt lat="51.06027" lon="2.90934">
        <ele>13.2</ele>
        <time>2021-08-18T07:44:16Z</time>
      </trkpt>
      <trkpt lat="51.06026" lon="2.91001">
        <ele>13.4</ele>
        <time>2021-08-18T07:44:45Z</time>
      </trkpt>
      <trkpt lat="51.06023" lon="2.91065">
        <ele>13.6</ele>
        <time>2021-08-18T07:45:13Z</time>
      </trkpt>
      <trkpt lat="51.06023" lon="2.91123">
        <ele>13.6</ele>
        <time>2021-08-18T07:45:38Z</time>
      </trkpt>
      <trkpt lat="51.06021" lon="2.91183">
        <ele>13.8</ele>
        <time>2021-08-18T07:46:04Z</time>
      </trkpt>
      <trkpt lat="51.06022" lon="2.91252">
        <ele>14</ele>
        <time>2021-08-18T07:46:34Z</time>
      </trkpt>
      <trkpt lat="51.06029" lon="2.91306">
        <ele>14.2</ele>
        <time>2021-08-18T07:46:58Z</time>
      </trkpt>
      <trkpt lat="51.06044" lon="2.91344">
        <ele>14.2</ele>
        <time>2021-08-18T07:47:18Z</time>
      </trkpt>
      <trkpt lat="51.06067" lon="2.91392">
        <ele>14.4</ele>
        <time>2021-08-18T07:47:45Z</time>
      </trkpt>
      <trkpt lat="51.06088" lon="2.91437">
        <ele>14.8</ele>
        <time>2021-08-18T07:48:10Z</time>
      </trkpt>
      <trkpt lat="51.06114" lon="2.91485">
        <ele>15.2</ele>
        <time>2021-08-18T07:48:38Z</time>
      </trkpt>
      <trkpt lat="51.06133" lon="2.91527">
        <ele>15.2</ele>
        <time>2021-08-18T07:49:01Z</time>
      </trkpt>
      <trkpt lat="51.06156" lon="2.91575">
        <ele>15.6</ele>
        <time>2021-08-18T07:49:28Z</time>
      </trkpt>
      <trkpt lat="51.06182" lon="2.91601">
        <ele>16</ele>
        <time>2021-08-18T07:49:52Z</time>
      </trkpt>
      <trkpt lat="51.06207" lon="2.91579">
        <ele>16.2</ele>
        <time>2021-08-18T07:50:12Z</time>
      </trkpt>
      <trkpt lat="51.06246" lon="2.91539">
        <ele>16.4</ele>
        <time>2021-08-18T07:50:44Z</time>
      </trkpt>
      <trkpt lat="51.06276" lon="2.91507">
        <ele>16.4</ele>
        <time>2021-08-18T07:51:09Z</time>
      </trkpt>
      <trkpt lat="51.06302" lon="2.91477">
        <ele>16.2</ele>
        <time>2021-08-18T07:51:30Z</time>
      </trkpt>
      <trkpt lat="51.06304" lon="2.91476">
        <ele>16.2</ele>
        <time>2021-08-18T07:51:32Z</time>
      </trkpt>
      <trkpt lat="51.06305" lon="2.91475">
        <ele>16.2</ele>
        <time>2021-08-18T07:51:33Z</time>
      </trkpt>
      <trkpt lat="51.06335" lon="2.91448">
        <ele>15.4</ele>
        <time>2021-08-18T07:51:57Z</time>
      </trkpt>
      <trkpt lat="51.06371" lon="2.91418">
        <ele>14.8</ele>
        <time>2021-08-18T07:52:25Z</time>
      </trkpt>
      <trkpt lat="51.06378" lon="2.91411">
        <ele>14.8</ele>
        <time>2021-08-18T07:52:32Z</time>
      </trkpt>
      <trkpt lat="51.06379" lon="2.9141">
        <ele>14.8</ele>
        <time>2021-08-18T07:52:33Z</time>
      </trkpt>
      <trkpt lat="51.06381" lon="2.91409">
        <ele>14.8</ele>
        <time>2021-08-18T07:52:34Z</time>
      </trkpt>
      <trkpt lat="51.06382" lon="2.91408">
        <ele>14.8</ele>
        <time>2021-08-18T07:52:35Z</time>
      </trkpt>
      <trkpt lat="51.06383" lon="2.91407">
        <ele>14.8</ele>
        <time>2021-08-18T07:52:36Z</time>
      </trkpt>
      <trkpt lat="51.06384" lon="2.91406">
        <ele>14.8</ele>
        <time>2021-08-18T07:52:37Z</time>
      </trkpt>
      <trkpt lat="51.06385" lon="2.91405">
        <ele>14.8</ele>
        <time>2021-08-18T07:52:38Z</time>
      </trkpt>
      <trkpt lat="51.06386" lon="2.91404">
        <ele>14.8</ele>
        <time>2021-08-18T07:52:39Z</time>
      </trkpt>
      <trkpt lat="51.06387" lon="2.91402">
        <ele>14.8</ele>
        <time>2021-08-18T07:52:40Z</time>
      </trkpt>
      <trkpt lat="51.06387" lon="2.914">
        <ele>14.6</ele>
        <time>2021-08-18T07:52:41Z</time>
      </trkpt>
      <trkpt lat="51.06388" lon="2.91399">
        <ele>14.6</ele>
        <time>2021-08-18T07:52:42Z</time>
      </trkpt>
      <trkpt lat="51.06389" lon="2.91397">
        <ele>14.6</ele>
        <time>2021-08-18T07:52:43Z</time>
      </trkpt>
      <trkpt lat="51.0639" lon="2.91396">
        <ele>14.6</ele>
        <time>2021-08-18T07:52:44Z</time>
      </trkpt>
      <trkpt lat="51.06392" lon="2.91392">
        <ele>14.4</ele>
        <time>2021-08-18T07:52:57Z</time>
      </trkpt>
      <trkpt lat="51.06393" lon="2.91393">
        <ele>14.4</ele>
        <time>2021-08-18T07:53:02Z</time>
      </trkpt>
      <trkpt lat="51.06394" lon="2.91393">
        <ele>14.4</ele>
        <time>2021-08-18T07:53:03Z</time>
      </trkpt>
      <trkpt lat="51.06396" lon="2.91393">
        <ele>14.4</ele>
        <time>2021-08-18T07:53:04Z</time>
      </trkpt>
      <trkpt lat="51.06397" lon="2.91392">
        <ele>14.4</ele>
        <time>2021-08-18T07:53:05Z</time>
      </trkpt>
      <trkpt lat="51.06398" lon="2.91391">
        <ele>14.4</ele>
        <time>2021-08-18T07:53:06Z</time>
      </trkpt>
      <trkpt lat="51.06399" lon="2.9139">
        <ele>14.4</ele>
        <time>2021-08-18T07:53:07Z</time>
      </trkpt>
      <trkpt lat="51.0643" lon="2.91367">
        <ele>14.2</ele>
        <time>2021-08-18T07:53:30Z</time>
      </trkpt>
      <trkpt lat="51.06474" lon="2.91341">
        <ele>14</ele>
        <time>2021-08-18T07:54:02Z</time>
      </trkpt>
      <trkpt lat="51.06517" lon="2.9132">
        <ele>14</ele>
        <time>2021-08-18T07:54:33Z</time>
      </trkpt>
      <trkpt lat="51.06559" lon="2.91286">
        <ele>14</ele>
        <time>2021-08-18T07:55:06Z</time>
      </trkpt>
      <trkpt lat="51.06595" lon="2.91257">
        <ele>13.8</ele>
        <time>2021-08-18T07:55:35Z</time>
      </trkpt>
      <trkpt lat="51.06633" lon="2.91225">
        <ele>13.6</ele>
        <time>2021-08-18T07:56:06Z</time>
      </trkpt>
      <trkpt lat="51.06671" lon="2.91195">
        <ele>13.4</ele>
        <time>2021-08-18T07:56:36Z</time>
      </trkpt>
      <trkpt lat="51.06689" lon="2.9121">
        <ele>13.2</ele>
        <time>2021-08-18T07:56:53Z</time>
      </trkpt>
      <trkpt lat="51.06702" lon="2.91268">
        <ele>13</ele>
        <time>2021-08-18T07:57:20Z</time>
      </trkpt>
      <trkpt lat="51.06724" lon="2.91315">
        <ele>13</ele>
        <time>2021-08-18T07:57:47Z</time>
      </trkpt>
      <trkpt lat="51.0675" lon="2.91354">
        <ele>13</ele>
        <time>2021-08-18T07:58:13Z</time>
      </trkpt>
      <trkpt lat="51.0678" lon="2.91396">
        <ele>12.8</ele>
        <time>2021-08-18T07:58:42Z</time>
      </trkpt>
      <trkpt lat="51.06809" lon="2.91438">
        <ele>13</ele>
        <time>2021-08-18T07:59:10Z</time>
      </trkpt>
      <trkpt lat="51.0684" lon="2.91483">
        <ele>12.8</ele>
        <time>2021-08-18T07:59:40Z</time>
      </trkpt>
      <trkpt lat="51.06872" lon="2.91523">
        <ele>13.2</ele>
        <time>2021-08-18T08:00:09Z</time>
      </trkpt>
      <trkpt lat="51.06873" lon="2.91525">
        <ele>13.2</ele>
        <time>2021-08-18T08:00:23Z</time>
      </trkpt>
      <trkpt lat="51.06874" lon="2.91525">
        <ele>13.2</ele>
        <time>2021-08-18T08:00:24Z</time>
      </trkpt>
      <trkpt lat="51.06875" lon="2.91526">
        <ele>13.2</ele>
        <time>2021-08-18T08:00:25Z</time>
      </trkpt>
      <trkpt lat="51.06877" lon="2.9153">
        <ele>13.2</ele>
        <time>2021-08-18T08:00:28Z</time>
      </trkpt>
      <trkpt lat="51.06878" lon="2.91531">
        <ele>13.2</ele>
        <time>2021-08-18T08:00:29Z</time>
      </trkpt>
      <trkpt lat="51.06879" lon="2.91533">
        <ele>13.2</ele>
        <time>2021-08-18T08:00:30Z</time>
      </trkpt>
      <trkpt lat="51.06881" lon="2.91537">
        <ele>13.4</ele>
        <time>2021-08-18T08:00:40Z</time>
      </trkpt>
      <trkpt lat="51.06883" lon="2.91539">
        <ele>13.4</ele>
        <time>2021-08-18T08:00:42Z</time>
      </trkpt>
      <trkpt lat="51.06884" lon="2.9154">
        <ele>13.4</ele>
        <time>2021-08-18T08:00:43Z</time>
      </trkpt>
      <trkpt lat="51.06885" lon="2.91542">
        <ele>13.4</ele>
        <time>2021-08-18T08:00:44Z</time>
      </trkpt>
      <trkpt lat="51.06886" lon="2.91543">
        <ele>13.4</ele>
        <time>2021-08-18T08:00:45Z</time>
      </trkpt>
      <trkpt lat="51.06905" lon="2.91578">
        <ele>13.4</ele>
        <time>2021-08-18T08:01:08Z</time>
      </trkpt>
      <trkpt lat="51.06918" lon="2.91602">
        <ele>13.8</ele>
        <time>2021-08-18T08:01:23Z</time>
      </trkpt>
      <trkpt lat="51.06919" lon="2.91603">
        <ele>13.8</ele>
        <time>2021-08-18T08:01:24Z</time>
      </trkpt>
      <trkpt lat="51.06921" lon="2.91604">
        <ele>13.8</ele>
        <time>2021-08-18T08:01:25Z</time>
      </trkpt>
      <trkpt lat="51.06943" lon="2.91649">
        <ele>13.4</ele>
        <time>2021-08-18T08:01:50Z</time>
      </trkpt>
      <trkpt lat="51.06961" lon="2.91698">
        <ele>13.4</ele>
        <time>2021-08-18T08:02:15Z</time>
      </trkpt>
      <trkpt lat="51.06975" lon="2.91749">
        <ele>13.6</ele>
        <time>2021-08-18T08:02:40Z</time>
      </trkpt>
      <trkpt lat="51.06974" lon="2.91796">
        <ele>13.8</ele>
        <time>2021-08-18T08:03:04Z</time>
      </trkpt>
      <trkpt lat="51.06944" lon="2.91818">
        <ele>14.6</ele>
        <time>2021-08-18T08:03:28Z</time>
      </trkpt>
      <trkpt lat="51.06914" lon="2.9184">
        <ele>15</ele>
        <time>2021-08-18T08:03:53Z</time>
      </trkpt>
      <trkpt lat="51.06884" lon="2.91863">
        <ele>14.8</ele>
        <time>2021-08-18T08:04:17Z</time>
      </trkpt>
      <trkpt lat="51.06852" lon="2.91887">
        <ele>14.8</ele>
        <time>2021-08-18T08:04:43Z</time>
      </trkpt>
      <trkpt lat="51.06819" lon="2.91913">
        <ele>14.8</ele>
        <time>2021-08-18T08:05:10Z</time>
      </trkpt>
      <trkpt lat="51.06786" lon="2.91938">
        <ele>15</ele>
        <time>2021-08-18T08:05:37Z</time>
      </trkpt>
      <trkpt lat="51.06761" lon="2.91964">
        <ele>15</ele>
        <time>2021-08-18T08:05:59Z</time>
      </trkpt>
      <trkpt lat="51.0673" lon="2.91992">
        <ele>14.8</ele>
        <time>2021-08-18T08:06:26Z</time>
      </trkpt>
      <trkpt lat="51.06705" lon="2.92018">
        <ele>15.2</ele>
        <time>2021-08-18T08:06:49Z</time>
      </trkpt>
      <trkpt lat="51.06705" lon="2.92023">
        <ele>15.2</ele>
        <time>2021-08-18T08:06:51Z</time>
      </trkpt>
      <trkpt lat="51.06705" lon="2.92025">
        <ele>15.2</ele>
        <time>2021-08-18T08:06:52Z</time>
      </trkpt>
      <trkpt lat="51.06706" lon="2.92026">
        <ele>15.2</ele>
        <time>2021-08-18T08:06:53Z</time>
      </trkpt>
      <trkpt lat="51.06707" lon="2.92028">
        <ele>15</ele>
        <time>2021-08-18T08:06:54Z</time>
      </trkpt>
      <trkpt lat="51.06708" lon="2.9203">
        <ele>15</ele>
        <time>2021-08-18T08:06:55Z</time>
      </trkpt>
      <trkpt lat="51.06714" lon="2.92054">
        <ele>15</ele>
        <time>2021-08-18T08:07:09Z</time>
      </trkpt>
      <trkpt lat="51.06723" lon="2.92092">
        <ele>15.2</ele>
        <time>2021-08-18T08:07:30Z</time>
      </trkpt>
      <trkpt lat="51.06732" lon="2.92124">
        <ele>15</ele>
        <time>2021-08-18T08:07:48Z</time>
      </trkpt>
      <trkpt lat="51.06733" lon="2.92129">
        <ele>14.6</ele>
        <time>2021-08-18T08:07:54Z</time>
      </trkpt>
      <trkpt lat="51.06734" lon="2.92131">
        <ele>15</ele>
        <time>2021-08-18T08:07:55Z</time>
      </trkpt>
      <trkpt lat="51.06734" lon="2.92133">
        <ele>15.2</ele>
        <time>2021-08-18T08:07:56Z</time>
      </trkpt>
      <trkpt lat="51.06734" lon="2.92135">
        <ele>15.2</ele>
        <time>2021-08-18T08:07:57Z</time>
      </trkpt>
      <trkpt lat="51.06735" lon="2.92137">
        <ele>15.2</ele>
        <time>2021-08-18T08:07:58Z</time>
      </trkpt>
      <trkpt lat="51.06735" lon="2.92139">
        <ele>15.2</ele>
        <time>2021-08-18T08:07:59Z</time>
      </trkpt>
      <trkpt lat="51.06736" lon="2.92141">
        <ele>15.2</ele>
        <time>2021-08-18T08:08:00Z</time>
      </trkpt>
      <trkpt lat="51.06736" lon="2.92143">
        <ele>15.2</ele>
        <time>2021-08-18T08:08:01Z</time>
      </trkpt>
      <trkpt lat="51.06746" lon="2.92186">
        <ele>14.8</ele>
        <time>2021-08-18T08:08:22Z</time>
      </trkpt>
      <trkpt lat="51.06756" lon="2.92224">
        <ele>14.8</ele>
        <time>2021-08-18T08:08:41Z</time>
      </trkpt>
      <trkpt lat="51.06764" lon="2.92259">
        <ele>15</ele>
        <time>2021-08-18T08:08:59Z</time>
      </trkpt>
      <trkpt lat="51.06774" lon="2.92304">
        <ele>15.2</ele>
        <time>2021-08-18T08:09:21Z</time>
      </trkpt>
      <trkpt lat="51.06784" lon="2.92342">
        <ele>15.2</ele>
        <time>2021-08-18T08:09:40Z</time>
      </trkpt>
      <trkpt lat="51.06792" lon="2.92378">
        <ele>15</ele>
        <time>2021-08-18T08:09:58Z</time>
      </trkpt>
      <trkpt lat="51.06801" lon="2.92417">
        <ele>15</ele>
        <time>2021-08-18T08:10:18Z</time>
      </trkpt>
      <trkpt lat="51.0681" lon="2.92452">
        <ele>15</ele>
        <time>2021-08-18T08:10:35Z</time>
      </trkpt>
      <trkpt lat="51.06819" lon="2.92491">
        <ele>15</ele>
        <time>2021-08-18T08:10:55Z</time>
      </trkpt>
      <trkpt lat="51.06826" lon="2.92514">
        <ele>15.2</ele>
        <time>2021-08-18T08:11:11Z</time>
      </trkpt>
      <trkpt lat="51.06829" lon="2.92524">
        <ele>15.4</ele>
        <time>2021-08-18T08:11:18Z</time>
      </trkpt>
      <trkpt lat="51.0683" lon="2.92529">
        <ele>15.4</ele>
        <time>2021-08-18T08:11:21Z</time>
      </trkpt>
      <trkpt lat="51.0683" lon="2.92531">
        <ele>15.4</ele>
        <time>2021-08-18T08:11:22Z</time>
      </trkpt>
      <trkpt lat="51.06831" lon="2.92533">
        <ele>15.4</ele>
        <time>2021-08-18T08:11:23Z</time>
      </trkpt>
      <trkpt lat="51.06838" lon="2.92568">
        <ele>15.6</ele>
        <time>2021-08-18T08:11:42Z</time>
      </trkpt>
      <trkpt lat="51.06846" lon="2.92598">
        <ele>15.6</ele>
        <time>2021-08-18T08:11:58Z</time>
      </trkpt>
      <trkpt lat="51.06854" lon="2.92633">
        <ele>15.6</ele>
        <time>2021-08-18T08:12:16Z</time>
      </trkpt>
      <trkpt lat="51.06862" lon="2.92666">
        <ele>16</ele>
        <time>2021-08-18T08:12:32Z</time>
      </trkpt>
      <trkpt lat="51.06872" lon="2.92708">
        <ele>16.4</ele>
        <time>2021-08-18T08:12:52Z</time>
      </trkpt>
      <trkpt lat="51.06882" lon="2.92748">
        <ele>16.8</ele>
        <time>2021-08-18T08:13:13Z</time>
      </trkpt>
      <trkpt lat="51.06889" lon="2.92779">
        <ele>17</ele>
        <time>2021-08-18T08:13:29Z</time>
      </trkpt>
      <trkpt lat="51.06898" lon="2.92814">
        <ele>17</ele>
        <time>2021-08-18T08:13:44Z</time>
      </trkpt>
      <trkpt lat="51.0691" lon="2.92839">
        <ele>17.2</ele>
        <time>2021-08-18T08:14:01Z</time>
      </trkpt>
      <trkpt lat="51.06928" lon="2.92864">
        <ele>17.4</ele>
        <time>2021-08-18T08:14:17Z</time>
      </trkpt>
      <trkpt lat="51.06942" lon="2.92888">
        <ele>17.2</ele>
        <time>2021-08-18T08:14:32Z</time>
      </trkpt>
      <trkpt lat="51.0696" lon="2.92913">
        <ele>17.4</ele>
        <time>2021-08-18T08:14:49Z</time>
      </trkpt>
      <trkpt lat="51.06975" lon="2.92935">
        <ele>17.4</ele>
        <time>2021-08-18T08:15:03Z</time>
      </trkpt>
      <trkpt lat="51.06996" lon="2.92962">
        <ele>17.4</ele>
        <time>2021-08-18T08:15:22Z</time>
      </trkpt>
      <trkpt lat="51.07018" lon="2.92993">
        <ele>17.4</ele>
        <time>2021-08-18T08:15:41Z</time>
      </trkpt>
      <trkpt lat="51.07033" lon="2.93016">
        <ele>17.6</ele>
        <time>2021-08-18T08:15:56Z</time>
      </trkpt>
      <trkpt lat="51.0704" lon="2.93023">
        <ele>17.6</ele>
        <time>2021-08-18T08:16:01Z</time>
      </trkpt>
      <trkpt lat="51.07042" lon="2.93025">
        <ele>17.6</ele>
        <time>2021-08-18T08:16:02Z</time>
      </trkpt>
      <trkpt lat="51.07043" lon="2.93027">
        <ele>17.6</ele>
        <time>2021-08-18T08:16:03Z</time>
      </trkpt>
      <trkpt lat="51.07044" lon="2.93029">
        <ele>17.6</ele>
        <time>2021-08-18T08:16:04Z</time>
      </trkpt>
      <trkpt lat="51.07044" lon="2.93031">
        <ele>17.6</ele>
        <time>2021-08-18T08:16:05Z</time>
      </trkpt>
      <trkpt lat="51.07045" lon="2.93033">
        <ele>17.6</ele>
        <time>2021-08-18T08:16:06Z</time>
      </trkpt>
      <trkpt lat="51.07047" lon="2.93035">
        <ele>17.6</ele>
        <time>2021-08-18T08:16:07Z</time>
      </trkpt>
      <trkpt lat="51.07048" lon="2.93036">
        <ele>17.6</ele>
        <time>2021-08-18T08:16:08Z</time>
      </trkpt>
      <trkpt lat="51.07049" lon="2.93038">
        <ele>17.6</ele>
        <time>2021-08-18T08:16:09Z</time>
      </trkpt>
      <trkpt lat="51.0705" lon="2.93039">
        <ele>17.6</ele>
        <time>2021-08-18T08:16:10Z</time>
      </trkpt>
      <trkpt lat="51.07055" lon="2.93039">
        <ele>17.8</ele>
        <time>2021-08-18T08:16:17Z</time>
      </trkpt>
      <trkpt lat="51.07058" lon="2.93038">
        <ele>17.6</ele>
        <time>2021-08-18T08:16:19Z</time>
      </trkpt>
      <trkpt lat="51.07059" lon="2.93038">
        <ele>17.6</ele>
        <time>2021-08-18T08:16:20Z</time>
      </trkpt>
      <trkpt lat="51.07063" lon="2.93038">
        <ele>17.6</ele>
        <time>2021-08-18T08:16:23Z</time>
      </trkpt>
      <trkpt lat="51.07064" lon="2.9304">
        <ele>17.6</ele>
        <time>2021-08-18T08:16:24Z</time>
      </trkpt>
      <trkpt lat="51.07065" lon="2.93041">
        <ele>17.6</ele>
        <time>2021-08-18T08:16:25Z</time>
      </trkpt>
      <trkpt lat="51.07066" lon="2.93042">
        <ele>17.6</ele>
        <time>2021-08-18T08:16:26Z</time>
      </trkpt>
      <trkpt lat="51.07067" lon="2.93042">
        <ele>17.6</ele>
        <time>2021-08-18T08:16:27Z</time>
      </trkpt>
      <trkpt lat="51.07068" lon="2.93042">
        <ele>17.6</ele>
        <time>2021-08-18T08:16:28Z</time>
      </trkpt>
      <trkpt lat="51.0707" lon="2.93042">
        <ele>17.6</ele>
        <time>2021-08-18T08:16:29Z</time>
      </trkpt>
      <trkpt lat="51.07071" lon="2.9304">
        <ele>17.6</ele>
        <time>2021-08-18T08:16:30Z</time>
      </trkpt>
      <trkpt lat="51.07072" lon="2.93039">
        <ele>17.8</ele>
        <time>2021-08-18T08:16:31Z</time>
      </trkpt>
      <trkpt lat="51.07073" lon="2.93037">
        <ele>17.8</ele>
        <time>2021-08-18T08:16:32Z</time>
      </trkpt>
      <trkpt lat="51.07074" lon="2.93036">
        <ele>17.8</ele>
        <time>2021-08-18T08:16:33Z</time>
      </trkpt>
      <trkpt lat="51.07096" lon="2.93005">
        <ele>17.6</ele>
        <time>2021-08-18T08:16:54Z</time>
      </trkpt>
      <trkpt lat="51.07103" lon="2.92999">
        <ele>17.6</ele>
        <time>2021-08-18T08:17:05Z</time>
      </trkpt>
      <trkpt lat="51.07107" lon="2.92994">
        <ele>17.2</ele>
        <time>2021-08-18T08:17:15Z</time>
      </trkpt>
      <trkpt lat="51.07106" lon="2.92997">
        <ele>17.2</ele>
        <time>2021-08-18T08:17:17Z</time>
      </trkpt>
      <trkpt lat="51.07104" lon="2.93">
        <ele>17.4</ele>
        <time>2021-08-18T08:17:19Z</time>
      </trkpt>
      <trkpt lat="51.07103" lon="2.93001">
        <ele>17.6</ele>
        <time>2021-08-18T08:17:20Z</time>
      </trkpt>
      <trkpt lat="51.07102" lon="2.93002">
        <ele>17.6</ele>
        <time>2021-08-18T08:17:21Z</time>
      </trkpt>
      <trkpt lat="51.07101" lon="2.93003">
        <ele>17.6</ele>
        <time>2021-08-18T08:17:22Z</time>
      </trkpt>
      <trkpt lat="51.07099" lon="2.93003">
        <ele>17.6</ele>
        <time>2021-08-18T08:17:23Z</time>
      </trkpt>
      <trkpt lat="51.07091" lon="2.93004">
        <ele>17.4</ele>
        <time>2021-08-18T08:17:37Z</time>
      </trkpt>
      <trkpt lat="51.07089" lon="2.93">
        <ele>17.2</ele>
        <time>2021-08-18T08:17:42Z</time>
      </trkpt>
      <trkpt lat="51.07085" lon="2.92991">
        <ele>17.2</ele>
        <time>2021-08-18T08:17:57Z</time>
      </trkpt>
      <trkpt lat="51.07083" lon="2.92989">
        <ele>17.6</ele>
        <time>2021-08-18T08:17:59Z</time>
      </trkpt>
      <trkpt lat="51.07082" lon="2.9299">
        <ele>17.6</ele>
        <time>2021-08-18T08:18:00Z</time>
      </trkpt>
      <trkpt lat="51.07081" lon="2.92991">
        <ele>17.6</ele>
        <time>2021-08-18T08:18:01Z</time>
      </trkpt>
      <trkpt lat="51.07078" lon="2.92997">
        <ele>17.4</ele>
        <time>2021-08-18T08:18:06Z</time>
      </trkpt>
      <trkpt lat="51.07077" lon="2.92999">
        <ele>17.4</ele>
        <time>2021-08-18T08:18:07Z</time>
      </trkpt>
      <trkpt lat="51.07069" lon="2.93014">
        <ele>17.4</ele>
        <time>2021-08-18T08:18:16Z</time>
      </trkpt>
      <trkpt lat="51.07068" lon="2.93015">
        <ele>17.4</ele>
        <time>2021-08-18T08:18:17Z</time>
      </trkpt>
      <trkpt lat="51.07068" lon="2.93017">
        <ele>17.4</ele>
        <time>2021-08-18T08:18:18Z</time>
      </trkpt>
      <trkpt lat="51.07067" lon="2.93019">
        <ele>17.4</ele>
        <time>2021-08-18T08:18:19Z</time>
      </trkpt>
      <trkpt lat="51.07066" lon="2.9302">
        <ele>17.4</ele>
        <time>2021-08-18T08:18:20Z</time>
      </trkpt>
      <trkpt lat="51.07065" lon="2.93022">
        <ele>17.4</ele>
        <time>2021-08-18T08:18:21Z</time>
      </trkpt>
      <trkpt lat="51.07065" lon="2.93023">
        <ele>17.4</ele>
        <time>2021-08-18T08:18:22Z</time>
      </trkpt>
      <trkpt lat="51.07064" lon="2.93025">
        <ele>17.4</ele>
        <time>2021-08-18T08:18:23Z</time>
      </trkpt>
      <trkpt lat="51.07064" lon="2.93027">
        <ele>17.4</ele>
        <time>2021-08-18T08:18:24Z</time>
      </trkpt>
      <trkpt lat="51.07064" lon="2.93029">
        <ele>17.4</ele>
        <time>2021-08-18T08:18:25Z</time>
      </trkpt>
      <trkpt lat="51.07064" lon="2.93031">
        <ele>17.4</ele>
        <time>2021-08-18T08:18:26Z</time>
      </trkpt>
      <trkpt lat="51.07065" lon="2.93033">
        <ele>17.4</ele>
        <time>2021-08-18T08:18:27Z</time>
      </trkpt>
      <trkpt lat="51.07065" lon="2.93035">
        <ele>17.4</ele>
        <time>2021-08-18T08:18:28Z</time>
      </trkpt>
      <trkpt lat="51.07068" lon="2.93043">
        <ele>17.6</ele>
        <time>2021-08-18T08:18:33Z</time>
      </trkpt>
      <trkpt lat="51.07068" lon="2.93045">
        <ele>17.6</ele>
        <time>2021-08-18T08:18:34Z</time>
      </trkpt>
      <trkpt lat="51.07068" lon="2.93047">
        <ele>17.6</ele>
        <time>2021-08-18T08:18:35Z</time>
      </trkpt>
      <trkpt lat="51.07067" lon="2.93049">
        <ele>17.6</ele>
        <time>2021-08-18T08:18:36Z</time>
      </trkpt>
      <trkpt lat="51.07065" lon="2.9305">
        <ele>17.6</ele>
        <time>2021-08-18T08:18:37Z</time>
      </trkpt>
      <trkpt lat="51.07063" lon="2.93053">
        <ele>17.6</ele>
        <time>2021-08-18T08:18:40Z</time>
      </trkpt>
      <trkpt lat="51.07043" lon="2.93084">
        <ele>17.8</ele>
        <time>2021-08-18T08:18:59Z</time>
      </trkpt>
      <trkpt lat="51.07038" lon="2.93088">
        <ele>17.8</ele>
        <time>2021-08-18T08:19:03Z</time>
      </trkpt>
      <trkpt lat="51.07038" lon="2.93091">
        <ele>17.8</ele>
        <time>2021-08-18T08:19:04Z</time>
      </trkpt>
      <trkpt lat="51.07038" lon="2.93093">
        <ele>17.8</ele>
        <time>2021-08-18T08:19:05Z</time>
      </trkpt>
      <trkpt lat="51.07038" lon="2.93095">
        <ele>17.8</ele>
        <time>2021-08-18T08:19:06Z</time>
      </trkpt>
      <trkpt lat="51.07038" lon="2.93098">
        <ele>17.8</ele>
        <time>2021-08-18T08:19:07Z</time>
      </trkpt>
      <trkpt lat="51.07037" lon="2.931">
        <ele>17.8</ele>
        <time>2021-08-18T08:19:08Z</time>
      </trkpt>
      <trkpt lat="51.07037" lon="2.93102">
        <ele>17.8</ele>
        <time>2021-08-18T08:19:09Z</time>
      </trkpt>
      <trkpt lat="51.07036" lon="2.93104">
        <ele>17.8</ele>
        <time>2021-08-18T08:19:10Z</time>
      </trkpt>
      <trkpt lat="51.07035" lon="2.93105">
        <ele>17.8</ele>
        <time>2021-08-18T08:19:11Z</time>
      </trkpt>
      <trkpt lat="51.07033" lon="2.93107">
        <ele>17.8</ele>
        <time>2021-08-18T08:19:12Z</time>
      </trkpt>
      <trkpt lat="51.07006" lon="2.93139">
        <ele>17.8</ele>
        <time>2021-08-18T08:19:35Z</time>
      </trkpt>
      <trkpt lat="51.06971" lon="2.93181">
        <ele>18.2</ele>
        <time>2021-08-18T08:20:05Z</time>
      </trkpt>
      <trkpt lat="51.06942" lon="2.93219">
        <ele>18.6</ele>
        <time>2021-08-18T08:20:31Z</time>
      </trkpt>
      <trkpt lat="51.06904" lon="2.93261">
        <ele>18.6</ele>
        <time>2021-08-18T08:21:02Z</time>
      </trkpt>
      <trkpt lat="51.06874" lon="2.93301">
        <ele>18.2</ele>
        <time>2021-08-18T08:21:29Z</time>
      </trkpt>
      <trkpt lat="51.06838" lon="2.93345">
        <ele>18.6</ele>
        <time>2021-08-18T08:22:00Z</time>
      </trkpt>
      <trkpt lat="51.06827" lon="2.93357">
        <ele>18.6</ele>
        <time>2021-08-18T08:22:10Z</time>
      </trkpt>
      <trkpt lat="51.06826" lon="2.93357">
        <ele>18.6</ele>
        <time>2021-08-18T08:22:11Z</time>
      </trkpt>
      <trkpt lat="51.06799" lon="2.9338">
        <ele>19</ele>
        <time>2021-08-18T08:22:32Z</time>
      </trkpt>
      <trkpt lat="51.06771" lon="2.93414">
        <ele>19</ele>
        <time>2021-08-18T08:22:56Z</time>
      </trkpt>
      <trkpt lat="51.06739" lon="2.93453">
        <ele>19.6</ele>
        <time>2021-08-18T08:23:24Z</time>
      </trkpt>
      <trkpt lat="51.06707" lon="2.93492">
        <ele>20.2</ele>
        <time>2021-08-18T08:23:52Z</time>
      </trkpt>
      <trkpt lat="51.06675" lon="2.93532">
        <ele>20.6</ele>
        <time>2021-08-18T08:24:21Z</time>
      </trkpt>
      <trkpt lat="51.06647" lon="2.93545">
        <ele>21</ele>
        <time>2021-08-18T08:24:42Z</time>
      </trkpt>
      <trkpt lat="51.06617" lon="2.93565">
        <ele>21.2</ele>
        <time>2021-08-18T08:25:04Z</time>
      </trkpt>
      <trkpt lat="51.06611" lon="2.936">
        <ele>21.4</ele>
        <time>2021-08-18T08:25:20Z</time>
      </trkpt>
      <trkpt lat="51.06586" lon="2.93643">
        <ele>21.6</ele>
        <time>2021-08-18T08:25:46Z</time>
      </trkpt>
      <trkpt lat="51.06552" lon="2.93683">
        <ele>21.8</ele>
        <time>2021-08-18T08:26:15Z</time>
      </trkpt>
      <trkpt lat="51.06518" lon="2.93727">
        <ele>22.2</ele>
        <time>2021-08-18T08:26:45Z</time>
      </trkpt>
      <trkpt lat="51.06492" lon="2.93736">
        <ele>22.4</ele>
        <time>2021-08-18T08:27:05Z</time>
      </trkpt>
      <trkpt lat="51.06478" lon="2.93688">
        <ele>22</ele>
        <time>2021-08-18T08:27:27Z</time>
      </trkpt>
      <trkpt lat="51.06461" lon="2.93644">
        <ele>22</ele>
        <time>2021-08-18T08:27:49Z</time>
      </trkpt>
      <trkpt lat="51.06443" lon="2.93599">
        <ele>22</ele>
        <time>2021-08-18T08:28:14Z</time>
      </trkpt>
      <trkpt lat="51.06442" lon="2.93596">
        <ele>21.8</ele>
        <time>2021-08-18T08:28:28Z</time>
      </trkpt>
      <trkpt lat="51.06441" lon="2.93595">
        <ele>21.8</ele>
        <time>2021-08-18T08:28:29Z</time>
      </trkpt>
      <trkpt lat="51.06441" lon="2.93593">
        <ele>21.8</ele>
        <time>2021-08-18T08:28:30Z</time>
      </trkpt>
      <trkpt lat="51.0644" lon="2.9359">
        <ele>21.8</ele>
        <time>2021-08-18T08:28:31Z</time>
      </trkpt>
      <trkpt lat="51.0644" lon="2.93588">
        <ele>21.8</ele>
        <time>2021-08-18T08:28:32Z</time>
      </trkpt>
      <trkpt lat="51.06439" lon="2.93586">
        <ele>21.8</ele>
        <time>2021-08-18T08:28:33Z</time>
      </trkpt>
      <trkpt lat="51.06422" lon="2.93538">
        <ele>21.2</ele>
        <time>2021-08-18T08:28:57Z</time>
      </trkpt>
      <trkpt lat="51.06403" lon="2.93485">
        <ele>21.8</ele>
        <time>2021-08-18T08:29:24Z</time>
      </trkpt>
      <trkpt lat="51.06381" lon="2.93426">
        <ele>21.6</ele>
        <time>2021-08-18T08:29:54Z</time>
      </trkpt>
      <trkpt lat="51.0636" lon="2.93365">
        <ele>21.8</ele>
        <time>2021-08-18T08:30:25Z</time>
      </trkpt>
      <trkpt lat="51.06344" lon="2.9331">
        <ele>21.6</ele>
        <time>2021-08-18T08:30:52Z</time>
      </trkpt>
      <trkpt lat="51.06335" lon="2.93272">
        <ele>21.2</ele>
        <time>2021-08-18T08:31:15Z</time>
      </trkpt>
      <trkpt lat="51.06334" lon="2.9327">
        <ele>21.2</ele>
        <time>2021-08-18T08:31:16Z</time>
      </trkpt>
      <trkpt lat="51.06333" lon="2.93268">
        <ele>21.2</ele>
        <time>2021-08-18T08:31:17Z</time>
      </trkpt>
      <trkpt lat="51.06333" lon="2.93266">
        <ele>21.2</ele>
        <time>2021-08-18T08:31:18Z</time>
      </trkpt>
      <trkpt lat="51.06332" lon="2.93264">
        <ele>21.2</ele>
        <time>2021-08-18T08:31:19Z</time>
      </trkpt>
      <trkpt lat="51.06318" lon="2.93212">
        <ele>21</ele>
        <time>2021-08-18T08:31:44Z</time>
      </trkpt>
      <trkpt lat="51.06303" lon="2.93154">
        <ele>20.8</ele>
        <time>2021-08-18T08:32:12Z</time>
      </trkpt>
      <trkpt lat="51.0629" lon="2.93102">
        <ele>20.4</ele>
        <time>2021-08-18T08:32:37Z</time>
      </trkpt>
      <trkpt lat="51.0628" lon="2.93048">
        <ele>20</ele>
        <time>2021-08-18T08:33:02Z</time>
      </trkpt>
      <trkpt lat="51.06269" lon="2.93">
        <ele>19.8</ele>
        <time>2021-08-18T08:33:25Z</time>
      </trkpt>
      <trkpt lat="51.06252" lon="2.92974">
        <ele>19.6</ele>
        <time>2021-08-18T08:33:46Z</time>
      </trkpt>
      <trkpt lat="51.06234" lon="2.93002">
        <ele>19.6</ele>
        <time>2021-08-18T08:34:04Z</time>
      </trkpt>
      <trkpt lat="51.06203" lon="2.93043">
        <ele>19.8</ele>
        <time>2021-08-18T08:34:33Z</time>
      </trkpt>
      <trkpt lat="51.06176" lon="2.93077">
        <ele>19.8</ele>
        <time>2021-08-18T08:34:58Z</time>
      </trkpt>
      <trkpt lat="51.0614" lon="2.9307">
        <ele>19.6</ele>
        <time>2021-08-18T08:35:25Z</time>
      </trkpt>
      <trkpt lat="51.06105" lon="2.93054">
        <ele>19.4</ele>
        <time>2021-08-18T08:35:52Z</time>
      </trkpt>
      <trkpt lat="51.06082" lon="2.931">
        <ele>19.2</ele>
        <time>2021-08-18T08:36:18Z</time>
      </trkpt>
      <trkpt lat="51.06076" lon="2.93119">
        <ele>19</ele>
        <time>2021-08-18T08:36:29Z</time>
      </trkpt>
      <trkpt lat="51.06076" lon="2.93121">
        <ele>19</ele>
        <time>2021-08-18T08:36:30Z</time>
      </trkpt>
      <trkpt lat="51.06075" lon="2.93122">
        <ele>19</ele>
        <time>2021-08-18T08:36:31Z</time>
      </trkpt>
      <trkpt lat="51.06074" lon="2.93124">
        <ele>19</ele>
        <time>2021-08-18T08:36:32Z</time>
      </trkpt>
      <trkpt lat="51.06074" lon="2.93126">
        <ele>19</ele>
        <time>2021-08-18T08:36:33Z</time>
      </trkpt>
      <trkpt lat="51.0606" lon="2.9318">
        <ele>19.2</ele>
        <time>2021-08-18T08:36:59Z</time>
      </trkpt>
      <trkpt lat="51.06046" lon="2.93226">
        <ele>19.4</ele>
        <time>2021-08-18T08:37:22Z</time>
      </trkpt>
      <trkpt lat="51.06019" lon="2.93244">
        <ele>19.2</ele>
        <time>2021-08-18T08:37:43Z</time>
      </trkpt>
      <trkpt lat="51.05982" lon="2.93253">
        <ele>18.8</ele>
        <time>2021-08-18T08:38:09Z</time>
      </trkpt>
      <trkpt lat="51.05936" lon="2.93264">
        <ele>18.4</ele>
        <time>2021-08-18T08:38:41Z</time>
      </trkpt>
      <trkpt lat="51.05897" lon="2.93271">
        <ele>17.4</ele>
        <time>2021-08-18T08:39:08Z</time>
      </trkpt>
      <trkpt lat="51.05859" lon="2.93279">
        <ele>16.8</ele>
        <time>2021-08-18T08:39:34Z</time>
      </trkpt>
      <trkpt lat="51.05822" lon="2.93303">
        <ele>16.4</ele>
        <time>2021-08-18T08:40:02Z</time>
      </trkpt>
      <trkpt lat="51.05796" lon="2.93315">
        <ele>16</ele>
        <time>2021-08-18T08:40:21Z</time>
      </trkpt>
      <trkpt lat="51.05754" lon="2.93334">
        <ele>15.6</ele>
        <time>2021-08-18T08:40:52Z</time>
      </trkpt>
      <trkpt lat="51.05718" lon="2.93345">
        <ele>15.4</ele>
        <time>2021-08-18T08:41:18Z</time>
      </trkpt>
      <trkpt lat="51.05681" lon="2.93355">
        <ele>15.2</ele>
        <time>2021-08-18T08:41:45Z</time>
      </trkpt>
      <trkpt lat="51.05645" lon="2.9337">
        <ele>15</ele>
        <time>2021-08-18T08:42:11Z</time>
      </trkpt>
      <trkpt lat="51.05615" lon="2.93379">
        <ele>14.8</ele>
        <time>2021-08-18T08:42:33Z</time>
      </trkpt>
      <trkpt lat="51.05588" lon="2.93376">
        <ele>14.8</ele>
        <time>2021-08-18T08:42:57Z</time>
      </trkpt>
      <trkpt lat="51.05588" lon="2.93377">
        <ele>14.8</ele>
        <time>2021-08-18T08:43:13Z</time>
      </trkpt>
      <trkpt lat="51.05587" lon="2.93378">
        <ele>14.8</ele>
        <time>2021-08-18T08:43:14Z</time>
      </trkpt>
      <trkpt lat="51.05585" lon="2.93379">
        <ele>14.8</ele>
        <time>2021-08-18T08:43:15Z</time>
      </trkpt>
      <trkpt lat="51.05584" lon="2.93379">
        <ele>14.8</ele>
        <time>2021-08-18T08:43:16Z</time>
      </trkpt>
      <trkpt lat="51.05583" lon="2.9338">
        <ele>14.8</ele>
        <time>2021-08-18T08:43:17Z</time>
      </trkpt>
      <trkpt lat="51.05581" lon="2.9338">
        <ele>14.8</ele>
        <time>2021-08-18T08:43:18Z</time>
      </trkpt>
      <trkpt lat="51.05563" lon="2.93358">
        <ele>15</ele>
        <time>2021-08-18T08:43:37Z</time>
      </trkpt>
      <trkpt lat="51.05555" lon="2.93299">
        <ele>15.2</ele>
        <time>2021-08-18T08:44:04Z</time>
      </trkpt>
      <trkpt lat="51.05542" lon="2.93228">
        <ele>15</ele>
        <time>2021-08-18T08:44:37Z</time>
      </trkpt>
      <trkpt lat="51.05512" lon="2.93174">
        <ele>14.8</ele>
        <time>2021-08-18T08:45:09Z</time>
      </trkpt>
      <trkpt lat="51.0548" lon="2.93136">
        <ele>14.4</ele>
        <time>2021-08-18T08:45:38Z</time>
      </trkpt>
      <trkpt lat="51.05451" lon="2.93095">
        <ele>13.8</ele>
        <time>2021-08-18T08:46:05Z</time>
      </trkpt>
      <trkpt lat="51.05421" lon="2.93053">
        <ele>14.2</ele>
        <time>2021-08-18T08:46:34Z</time>
      </trkpt>
      <trkpt lat="51.05402" lon="2.93037">
        <ele>13.4</ele>
        <time>2021-08-18T08:46:56Z</time>
      </trkpt>
      <trkpt lat="51.05402" lon="2.93036">
        <ele>13.4</ele>
        <time>2021-08-18T08:46:58Z</time>
      </trkpt>
      <trkpt lat="51.05401" lon="2.93034">
        <ele>13.4</ele>
        <time>2021-08-18T08:46:59Z</time>
      </trkpt>
      <trkpt lat="51.054" lon="2.93032">
        <ele>13.4</ele>
        <time>2021-08-18T08:47:00Z</time>
      </trkpt>
      <trkpt lat="51.054" lon="2.9303">
        <ele>13.4</ele>
        <time>2021-08-18T08:47:01Z</time>
      </trkpt>
      <trkpt lat="51.054" lon="2.93028">
        <ele>13.4</ele>
        <time>2021-08-18T08:47:02Z</time>
      </trkpt>
      <trkpt lat="51.05399" lon="2.93025">
        <ele>13.4</ele>
        <time>2021-08-18T08:47:03Z</time>
      </trkpt>
      <trkpt lat="51.05415" lon="2.92989">
        <ele>13.8</ele>
        <time>2021-08-18T08:47:23Z</time>
      </trkpt>
      <trkpt lat="51.05441" lon="2.92946">
        <ele>13.8</ele>
        <time>2021-08-18T08:47:50Z</time>
      </trkpt>
      <trkpt lat="51.05468" lon="2.92899">
        <ele>13.6</ele>
        <time>2021-08-18T08:48:19Z</time>
      </trkpt>
      <trkpt lat="51.05495" lon="2.9285">
        <ele>13.6</ele>
        <time>2021-08-18T08:48:48Z</time>
      </trkpt>
      <trkpt lat="51.05522" lon="2.92816">
        <ele>13.8</ele>
        <time>2021-08-18T08:49:13Z</time>
      </trkpt>
      <trkpt lat="51.05551" lon="2.92789">
        <ele>14</ele>
        <time>2021-08-18T08:49:37Z</time>
      </trkpt>
      <trkpt lat="51.05586" lon="2.92756">
        <ele>13.8</ele>
        <time>2021-08-18T08:50:06Z</time>
      </trkpt>
      <trkpt lat="51.0558" lon="2.92732">
        <ele>13.4</ele>
        <time>2021-08-18T08:50:20Z</time>
      </trkpt>
      <trkpt lat="51.05568" lon="2.92693">
        <ele>13.2</ele>
        <time>2021-08-18T08:50:42Z</time>
      </trkpt>
      <trkpt lat="51.05584" lon="2.92664">
        <ele>13.2</ele>
        <time>2021-08-18T08:51:00Z</time>
      </trkpt>
      <trkpt lat="51.056" lon="2.92622">
        <ele>13.8</ele>
        <time>2021-08-18T08:51:23Z</time>
      </trkpt>
      <trkpt lat="51.05601" lon="2.92622">
        <ele>13.8</ele>
        <time>2021-08-18T08:51:24Z</time>
      </trkpt>
      <trkpt lat="51.05602" lon="2.92623">
        <ele>13.8</ele>
        <time>2021-08-18T08:51:25Z</time>
      </trkpt>
      <trkpt lat="51.05603" lon="2.92624">
        <ele>13.6</ele>
        <time>2021-08-18T08:51:26Z</time>
      </trkpt>
      <trkpt lat="51.05604" lon="2.92626">
        <ele>13.6</ele>
        <time>2021-08-18T08:51:27Z</time>
      </trkpt>
      <trkpt lat="51.05605" lon="2.92627">
        <ele>13.6</ele>
        <time>2021-08-18T08:51:28Z</time>
      </trkpt>
      <trkpt lat="51.05621" lon="2.92647">
        <ele>13.2</ele>
        <time>2021-08-18T08:51:42Z</time>
      </trkpt>
      <trkpt lat="51.05622" lon="2.92646">
        <ele>13.2</ele>
        <time>2021-08-18T08:51:43Z</time>
      </trkpt>
      <trkpt lat="51.05623" lon="2.92644">
        <ele>13.2</ele>
        <time>2021-08-18T08:51:44Z</time>
      </trkpt>
      <trkpt lat="51.05623" lon="2.92642">
        <ele>13.2</ele>
        <time>2021-08-18T08:51:45Z</time>
      </trkpt>
      <trkpt lat="51.05624" lon="2.92641">
        <ele>13.2</ele>
        <time>2021-08-18T08:51:46Z</time>
      </trkpt>
      <trkpt lat="51.05625" lon="2.92639">
        <ele>13.2</ele>
        <time>2021-08-18T08:51:47Z</time>
      </trkpt>
      <trkpt lat="51.05646" lon="2.92597">
        <ele>13</ele>
        <time>2021-08-18T08:52:12Z</time>
      </trkpt>
      <trkpt lat="51.0567" lon="2.92551">
        <ele>13.2</ele>
        <time>2021-08-18T08:52:39Z</time>
      </trkpt>
      <trkpt lat="51.05693" lon="2.92506">
        <ele>13.4</ele>
        <time>2021-08-18T08:53:05Z</time>
      </trkpt>
      <trkpt lat="51.05702" lon="2.92488">
        <ele>13.2</ele>
        <time>2021-08-18T08:53:16Z</time>
      </trkpt>
      <trkpt lat="51.05704" lon="2.92485">
        <ele>13</ele>
        <time>2021-08-18T08:53:20Z</time>
      </trkpt>
      <trkpt lat="51.05705" lon="2.92483">
        <ele>13</ele>
        <time>2021-08-18T08:53:21Z</time>
      </trkpt>
      <trkpt lat="51.05705" lon="2.92481">
        <ele>13</ele>
        <time>2021-08-18T08:53:22Z</time>
      </trkpt>
      <trkpt lat="51.05706" lon="2.92479">
        <ele>13</ele>
        <time>2021-08-18T08:53:23Z</time>
      </trkpt>
      <trkpt lat="51.05706" lon="2.92477">
        <ele>13.2</ele>
        <time>2021-08-18T08:53:24Z</time>
      </trkpt>
      <trkpt lat="51.05707" lon="2.92475">
        <ele>13.2</ele>
        <time>2021-08-18T08:53:25Z</time>
      </trkpt>
      <trkpt lat="51.05707" lon="2.92473">
        <ele>13.2</ele>
        <time>2021-08-18T08:53:26Z</time>
      </trkpt>
      <trkpt lat="51.05725" lon="2.92436">
        <ele>13.4</ele>
        <time>2021-08-18T08:53:47Z</time>
      </trkpt>
      <trkpt lat="51.05749" lon="2.92391">
        <ele>13.8</ele>
        <time>2021-08-18T08:54:15Z</time>
      </trkpt>
      <trkpt lat="51.05774" lon="2.92345">
        <ele>14.4</ele>
        <time>2021-08-18T08:54:43Z</time>
      </trkpt>
      <trkpt lat="51.058" lon="2.92291">
        <ele>14.4</ele>
        <time>2021-08-18T08:55:15Z</time>
      </trkpt>
      <trkpt lat="51.05823" lon="2.9223">
        <ele>14.6</ele>
        <time>2021-08-18T08:55:47Z</time>
      </trkpt>
      <trkpt lat="51.0583" lon="2.92202">
        <ele>14.6</ele>
        <time>2021-08-18T08:56:01Z</time>
      </trkpt>
      <trkpt lat="51.05829" lon="2.92201">
        <ele>14.6</ele>
        <time>2021-08-18T08:56:02Z</time>
      </trkpt>
      <trkpt lat="51.05828" lon="2.922">
        <ele>14.6</ele>
        <time>2021-08-18T08:56:03Z</time>
      </trkpt>
      <trkpt lat="51.05827" lon="2.92198">
        <ele>14.6</ele>
        <time>2021-08-18T08:56:04Z</time>
      </trkpt>
      <trkpt lat="51.05825" lon="2.92197">
        <ele>14.6</ele>
        <time>2021-08-18T08:56:05Z</time>
      </trkpt>
      <trkpt lat="51.0579" lon="2.92183">
        <ele>14.6</ele>
        <time>2021-08-18T08:56:31Z</time>
      </trkpt>
      <trkpt lat="51.05753" lon="2.9218">
        <ele>14.6</ele>
        <time>2021-08-18T08:56:58Z</time>
      </trkpt>
      <trkpt lat="51.0572" lon="2.92178">
        <ele>14.4</ele>
        <time>2021-08-18T08:57:22Z</time>
      </trkpt>
      <trkpt lat="51.05683" lon="2.9218">
        <ele>14</ele>
        <time>2021-08-18T08:57:49Z</time>
      </trkpt>
      <trkpt lat="51.05647" lon="2.92187">
        <ele>12.8</ele>
        <time>2021-08-18T08:58:15Z</time>
      </trkpt>
      <trkpt lat="51.0561" lon="2.92173">
        <ele>12.6</ele>
        <time>2021-08-18T08:58:43Z</time>
      </trkpt>
      <trkpt lat="51.05577" lon="2.92133">
        <ele>12.4</ele>
        <time>2021-08-18T08:59:13Z</time>
      </trkpt>
      <trkpt lat="51.05547" lon="2.92091">
        <ele>12.2</ele>
        <time>2021-08-18T08:59:42Z</time>
      </trkpt>
      <trkpt lat="51.05546" lon="2.92086">
        <ele>11.8</ele>
        <time>2021-08-18T08:59:53Z</time>
      </trkpt>
      <trkpt lat="51.05544" lon="2.92084">
        <ele>11.8</ele>
        <time>2021-08-18T08:59:55Z</time>
      </trkpt>
      <trkpt lat="51.05542" lon="2.92084">
        <ele>11.8</ele>
        <time>2021-08-18T08:59:56Z</time>
      </trkpt>
      <trkpt lat="51.05541" lon="2.92083">
        <ele>12</ele>
        <time>2021-08-18T08:59:57Z</time>
      </trkpt>
      <trkpt lat="51.0554" lon="2.92082">
        <ele>12.2</ele>
        <time>2021-08-18T08:59:58Z</time>
      </trkpt>
      <trkpt lat="51.05509" lon="2.92047">
        <ele>12.2</ele>
        <time>2021-08-18T09:00:24Z</time>
      </trkpt>
      <trkpt lat="51.05471" lon="2.92008">
        <ele>11.6</ele>
        <time>2021-08-18T09:00:56Z</time>
      </trkpt>
      <trkpt lat="51.0544" lon="2.91987">
        <ele>11.4</ele>
        <time>2021-08-18T09:01:21Z</time>
      </trkpt>
      <trkpt lat="51.05407" lon="2.91969">
        <ele>11.2</ele>
        <time>2021-08-18T09:01:46Z</time>
      </trkpt>
      <trkpt lat="51.05376" lon="2.91997">
        <ele>11</ele>
        <time>2021-08-18T09:02:12Z</time>
      </trkpt>
      <trkpt lat="51.05339" lon="2.9203">
        <ele>10.8</ele>
        <time>2021-08-18T09:02:42Z</time>
      </trkpt>
      <trkpt lat="51.05309" lon="2.91999">
        <ele>10.6</ele>
        <time>2021-08-18T09:03:07Z</time>
      </trkpt>
      <trkpt lat="51.05286" lon="2.91949">
        <ele>10.6</ele>
        <time>2021-08-18T09:03:34Z</time>
      </trkpt>
      <trkpt lat="51.05269" lon="2.91894">
        <ele>10.2</ele>
        <time>2021-08-18T09:04:02Z</time>
      </trkpt>
      <trkpt lat="51.05267" lon="2.91879">
        <ele>9.8</ele>
        <time>2021-08-18T09:04:18Z</time>
      </trkpt>
      <trkpt lat="51.05266" lon="2.91877">
        <ele>11</ele>
        <time>2021-08-18T09:04:21Z</time>
      </trkpt>
      <trkpt lat="51.05265" lon="2.91875">
        <ele>11</ele>
        <time>2021-08-18T09:04:22Z</time>
      </trkpt>
      <trkpt lat="51.05265" lon="2.91873">
        <ele>10.8</ele>
        <time>2021-08-18T09:04:23Z</time>
      </trkpt>
      <trkpt lat="51.05264" lon="2.91871">
        <ele>10.6</ele>
        <time>2021-08-18T09:04:24Z</time>
      </trkpt>
      <trkpt lat="51.05263" lon="2.91869">
        <ele>10.4</ele>
        <time>2021-08-18T09:04:25Z</time>
      </trkpt>
      <trkpt lat="51.05244" lon="2.91821">
        <ele>9.8</ele>
        <time>2021-08-18T09:04:51Z</time>
      </trkpt>
      <trkpt lat="51.05243" lon="2.91821">
        <ele>9.8</ele>
        <time>2021-08-18T09:04:52Z</time>
      </trkpt>
      <trkpt lat="51.05242" lon="2.91822">
        <ele>9.8</ele>
        <time>2021-08-18T09:04:53Z</time>
      </trkpt>
      <trkpt lat="51.0524" lon="2.91822">
        <ele>9.8</ele>
        <time>2021-08-18T09:04:54Z</time>
      </trkpt>
      <trkpt lat="51.05239" lon="2.91824">
        <ele>9.8</ele>
        <time>2021-08-18T09:04:55Z</time>
      </trkpt>
      <trkpt lat="51.05238" lon="2.91825">
        <ele>9.8</ele>
        <time>2021-08-18T09:04:56Z</time>
      </trkpt>
      <trkpt lat="51.05237" lon="2.91827">
        <ele>9.8</ele>
        <time>2021-08-18T09:04:57Z</time>
      </trkpt>
      <trkpt lat="51.05206" lon="2.91871">
        <ele>10.2</ele>
        <time>2021-08-18T09:05:27Z</time>
      </trkpt>
      <trkpt lat="51.05173" lon="2.91914">
        <ele>9.8</ele>
        <time>2021-08-18T09:05:57Z</time>
      </trkpt>
      <trkpt lat="51.05158" lon="2.91929">
        <ele>9.6</ele>
        <time>2021-08-18T09:06:13Z</time>
      </trkpt>
      <trkpt lat="51.05156" lon="2.9193">
        <ele>9.4</ele>
        <time>2021-08-18T09:06:14Z</time>
      </trkpt>
      <trkpt lat="51.05155" lon="2.91932">
        <ele>9.4</ele>
        <time>2021-08-18T09:06:15Z</time>
      </trkpt>
      <trkpt lat="51.05154" lon="2.91934">
        <ele>9.2</ele>
        <time>2021-08-18T09:06:16Z</time>
      </trkpt>
      <trkpt lat="51.05153" lon="2.91935">
        <ele>9.2</ele>
        <time>2021-08-18T09:06:17Z</time>
      </trkpt>
      <trkpt lat="51.05135" lon="2.91967">
        <ele>8.8</ele>
        <time>2021-08-18T09:06:38Z</time>
      </trkpt>
      <trkpt lat="51.05114" lon="2.92003">
        <ele>8.4</ele>
        <time>2021-08-18T09:06:59Z</time>
      </trkpt>
      <trkpt lat="51.05096" lon="2.92032">
        <ele>7.8</ele>
        <time>2021-08-18T09:07:17Z</time>
      </trkpt>
      <trkpt lat="51.05071" lon="2.92059">
        <ele>7.4</ele>
        <time>2021-08-18T09:07:39Z</time>
      </trkpt>
      <trkpt lat="51.0507" lon="2.92059">
        <ele>7.4</ele>
        <time>2021-08-18T09:07:40Z</time>
      </trkpt>
      <trkpt lat="51.05069" lon="2.9206">
        <ele>7.4</ele>
        <time>2021-08-18T09:07:41Z</time>
      </trkpt>
      <trkpt lat="51.05068" lon="2.92061">
        <ele>7.4</ele>
        <time>2021-08-18T09:07:42Z</time>
      </trkpt>
      <trkpt lat="51.05067" lon="2.92061">
        <ele>7.4</ele>
        <time>2021-08-18T09:07:43Z</time>
      </trkpt>
      <trkpt lat="51.05066" lon="2.92062">
        <ele>7.6</ele>
        <time>2021-08-18T09:07:44Z</time>
      </trkpt>
      <trkpt lat="51.0506" lon="2.92063">
        <ele>7.8</ele>
        <time>2021-08-18T09:07:51Z</time>
      </trkpt>
      <trkpt lat="51.05057" lon="2.92058">
        <ele>7.8</ele>
        <time>2021-08-18T09:07:55Z</time>
      </trkpt>
      <trkpt lat="51.05057" lon="2.92056">
        <ele>7.8</ele>
        <time>2021-08-18T09:07:56Z</time>
      </trkpt>
      <trkpt lat="51.05056" lon="2.92054">
        <ele>7.8</ele>
        <time>2021-08-18T09:07:57Z</time>
      </trkpt>
      <trkpt lat="51.05055" lon="2.92052">
        <ele>7.8</ele>
        <time>2021-08-18T09:07:58Z</time>
      </trkpt>
      <trkpt lat="51.05054" lon="2.92051">
        <ele>7.8</ele>
        <time>2021-08-18T09:07:59Z</time>
      </trkpt>
      <trkpt lat="51.05029" lon="2.9202">
        <ele>8</ele>
        <time>2021-08-18T09:08:21Z</time>
      </trkpt>
      <trkpt lat="51.05008" lon="2.92007">
        <ele>7.4</ele>
        <time>2021-08-18T09:08:38Z</time>
      </trkpt>
      <trkpt lat="51.04975" lon="2.9201">
        <ele>7</ele>
        <time>2021-08-18T09:09:01Z</time>
      </trkpt>
      <trkpt lat="51.04947" lon="2.91991">
        <ele>7</ele>
        <time>2021-08-18T09:09:23Z</time>
      </trkpt>
      <trkpt lat="51.04927" lon="2.91977">
        <ele>6.8</ele>
        <time>2021-08-18T09:09:39Z</time>
      </trkpt>
      <trkpt lat="51.04898" lon="2.91949">
        <ele>6.8</ele>
        <time>2021-08-18T09:10:03Z</time>
      </trkpt>
      <trkpt lat="51.0487" lon="2.91935">
        <ele>6.4</ele>
        <time>2021-08-18T09:10:24Z</time>
      </trkpt>
      <trkpt lat="51.04843" lon="2.91926">
        <ele>6.2</ele>
        <time>2021-08-18T09:10:47Z</time>
      </trkpt>
      <trkpt lat="51.04842" lon="2.91926">
        <ele>6.2</ele>
        <time>2021-08-18T09:10:51Z</time>
      </trkpt>
      <trkpt lat="51.04841" lon="2.91925">
        <ele>6.2</ele>
        <time>2021-08-18T09:10:52Z</time>
      </trkpt>
      <trkpt lat="51.0484" lon="2.91924">
        <ele>6.2</ele>
        <time>2021-08-18T09:10:53Z</time>
      </trkpt>
      <trkpt lat="51.04838" lon="2.91924">
        <ele>6.2</ele>
        <time>2021-08-18T09:10:54Z</time>
      </trkpt>
      <trkpt lat="51.04837" lon="2.91923">
        <ele>6.2</ele>
        <time>2021-08-18T09:10:55Z</time>
      </trkpt>
      <trkpt lat="51.04836" lon="2.91922">
        <ele>6.2</ele>
        <time>2021-08-18T09:10:56Z</time>
      </trkpt>
      <trkpt lat="51.04803" lon="2.91911">
        <ele>6.2</ele>
        <time>2021-08-18T09:11:22Z</time>
      </trkpt>
      <trkpt lat="51.04782" lon="2.91903">
        <ele>6.2</ele>
        <time>2021-08-18T09:11:38Z</time>
      </trkpt>
      <trkpt lat="51.04759" lon="2.91894">
        <ele>6.6</ele>
        <time>2021-08-18T09:11:54Z</time>
      </trkpt>
      <trkpt lat="51.04727" lon="2.91887">
        <ele>6.8</ele>
        <time>2021-08-18T09:12:18Z</time>
      </trkpt>
      <trkpt lat="51.04698" lon="2.91911">
        <ele>7</ele>
        <time>2021-08-18T09:12:42Z</time>
      </trkpt>
      <trkpt lat="51.04665" lon="2.91914">
        <ele>7.2</ele>
        <time>2021-08-18T09:13:05Z</time>
      </trkpt>
      <trkpt lat="51.04664" lon="2.91911">
        <ele>7</ele>
        <time>2021-08-18T09:13:07Z</time>
      </trkpt>
      <trkpt lat="51.04664" lon="2.91909">
        <ele>7</ele>
        <time>2021-08-18T09:13:08Z</time>
      </trkpt>
      <trkpt lat="51.04668" lon="2.91859">
        <ele>6.8</ele>
        <time>2021-08-18T09:13:30Z</time>
      </trkpt>
      <trkpt lat="51.04671" lon="2.91808">
        <ele>6.6</ele>
        <time>2021-08-18T09:13:52Z</time>
      </trkpt>
      <trkpt lat="51.04668" lon="2.91752">
        <ele>6.6</ele>
        <time>2021-08-18T09:14:17Z</time>
      </trkpt>
      <trkpt lat="51.04667" lon="2.91751">
        <ele>6.6</ele>
        <time>2021-08-18T09:14:18Z</time>
      </trkpt>
      <trkpt lat="51.04665" lon="2.9175">
        <ele>6.6</ele>
        <time>2021-08-18T09:14:19Z</time>
      </trkpt>
      <trkpt lat="51.04652" lon="2.91718">
        <ele>6.8</ele>
        <time>2021-08-18T09:14:38Z</time>
      </trkpt>
      <trkpt lat="51.04641" lon="2.91677">
        <ele>6.4</ele>
        <time>2021-08-18T09:14:58Z</time>
      </trkpt>
      <trkpt lat="51.04625" lon="2.91654">
        <ele>6.4</ele>
        <time>2021-08-18T09:15:13Z</time>
      </trkpt>
      <trkpt lat="51.04617" lon="2.91635">
        <ele>5.8</ele>
        <time>2021-08-18T09:15:23Z</time>
      </trkpt>
      <trkpt lat="51.04616" lon="2.91634">
        <ele>5.8</ele>
        <time>2021-08-18T09:15:24Z</time>
      </trkpt>
      <trkpt lat="51.04614" lon="2.91634">
        <ele>5.8</ele>
        <time>2021-08-18T09:15:25Z</time>
      </trkpt>
      <trkpt lat="51.04613" lon="2.91634">
        <ele>5.8</ele>
        <time>2021-08-18T09:15:26Z</time>
      </trkpt>
      <trkpt lat="51.04612" lon="2.91635">
        <ele>5.8</ele>
        <time>2021-08-18T09:15:27Z</time>
      </trkpt>
      <trkpt lat="51.0461" lon="2.91636">
        <ele>5.8</ele>
        <time>2021-08-18T09:15:28Z</time>
      </trkpt>
      <trkpt lat="51.04609" lon="2.91637">
        <ele>5.8</ele>
        <time>2021-08-18T09:15:29Z</time>
      </trkpt>
      <trkpt lat="51.04608" lon="2.91638">
        <ele>5.8</ele>
        <time>2021-08-18T09:15:30Z</time>
      </trkpt>
      <trkpt lat="51.04581" lon="2.91671">
        <ele>5.4</ele>
        <time>2021-08-18T09:15:53Z</time>
      </trkpt>
      <trkpt lat="51.04553" lon="2.91712">
        <ele>5.2</ele>
        <time>2021-08-18T09:16:19Z</time>
      </trkpt>
      <trkpt lat="51.0453" lon="2.91749">
        <ele>5.4</ele>
        <time>2021-08-18T09:16:41Z</time>
      </trkpt>
      <trkpt lat="51.04505" lon="2.9179">
        <ele>5.6</ele>
        <time>2021-08-18T09:17:06Z</time>
      </trkpt>
      <trkpt lat="51.04479" lon="2.91833">
        <ele>5.8</ele>
        <time>2021-08-18T09:17:33Z</time>
      </trkpt>
      <trkpt lat="51.04452" lon="2.91846">
        <ele>6</ele>
        <time>2021-08-18T09:17:56Z</time>
      </trkpt>
      <trkpt lat="51.04429" lon="2.91815">
        <ele>5.6</ele>
        <time>2021-08-18T09:18:17Z</time>
      </trkpt>
      <trkpt lat="51.04411" lon="2.91771">
        <ele>5.4</ele>
        <time>2021-08-18T09:18:40Z</time>
      </trkpt>
      <trkpt lat="51.04395" lon="2.91726">
        <ele>5.2</ele>
        <time>2021-08-18T09:19:02Z</time>
      </trkpt>
      <trkpt lat="51.04374" lon="2.91663">
        <ele>5</ele>
        <time>2021-08-18T09:19:33Z</time>
      </trkpt>
      <trkpt lat="51.04351" lon="2.91606">
        <ele>5.2</ele>
        <time>2021-08-18T09:20:03Z</time>
      </trkpt>
      <trkpt lat="51.04326" lon="2.91551">
        <ele>6</ele>
        <time>2021-08-18T09:20:33Z</time>
      </trkpt>
      <trkpt lat="51.04299" lon="2.91502">
        <ele>5.8</ele>
        <time>2021-08-18T09:21:02Z</time>
      </trkpt>
      <trkpt lat="51.04276" lon="2.91456">
        <ele>5.8</ele>
        <time>2021-08-18T09:21:28Z</time>
      </trkpt>
      <trkpt lat="51.04251" lon="2.91382">
        <ele>5.6</ele>
        <time>2021-08-18T09:22:04Z</time>
      </trkpt>
      <trkpt lat="51.04229" lon="2.91322">
        <ele>4.8</ele>
        <time>2021-08-18T09:22:35Z</time>
      </trkpt>
      <trkpt lat="51.04202" lon="2.91301">
        <ele>3.6</ele>
        <time>2021-08-18T09:22:56Z</time>
      </trkpt>
      <trkpt lat="51.04169" lon="2.91284">
        <ele>3.2</ele>
        <time>2021-08-18T09:23:20Z</time>
      </trkpt>
      <trkpt lat="51.04126" lon="2.91264">
        <ele>3</ele>
        <time>2021-08-18T09:23:51Z</time>
      </trkpt>
      <trkpt lat="51.04091" lon="2.91248">
        <ele>2.8</ele>
        <time>2021-08-18T09:24:16Z</time>
      </trkpt>
      <trkpt lat="51.04055" lon="2.91225">
        <ele>2.8</ele>
        <time>2021-08-18T09:24:43Z</time>
      </trkpt>
      <trkpt lat="51.04017" lon="2.91209">
        <ele>2.6</ele>
        <time>2021-08-18T09:25:11Z</time>
      </trkpt>
      <trkpt lat="51.03986" lon="2.91203">
        <ele>2.6</ele>
        <time>2021-08-18T09:25:33Z</time>
      </trkpt>
      <trkpt lat="51.0395" lon="2.91198">
        <ele>2.6</ele>
        <time>2021-08-18T09:25:59Z</time>
      </trkpt>
      <trkpt lat="51.03916" lon="2.91194">
        <ele>2.2</ele>
        <time>2021-08-18T09:26:24Z</time>
      </trkpt>
      <trkpt lat="51.0388" lon="2.91189">
        <ele>2.2</ele>
        <time>2021-08-18T09:26:50Z</time>
      </trkpt>
      <trkpt lat="51.03849" lon="2.91187">
        <ele>2.6</ele>
        <time>2021-08-18T09:27:12Z</time>
      </trkpt>
      <trkpt lat="51.03816" lon="2.91188">
        <ele>2.6</ele>
        <time>2021-08-18T09:27:35Z</time>
      </trkpt>
      <trkpt lat="51.03781" lon="2.91184">
        <ele>2.4</ele>
        <time>2021-08-18T09:28:00Z</time>
      </trkpt>
      <trkpt lat="51.03746" lon="2.9117">
        <ele>2.4</ele>
        <time>2021-08-18T09:28:26Z</time>
      </trkpt>
      <trkpt lat="51.03713" lon="2.91155">
        <ele>2.2</ele>
        <time>2021-08-18T09:28:51Z</time>
      </trkpt>
      <trkpt lat="51.0368" lon="2.91134">
        <ele>2.4</ele>
        <time>2021-08-18T09:29:17Z</time>
      </trkpt>
      <trkpt lat="51.0365" lon="2.91113">
        <ele>2.4</ele>
        <time>2021-08-18T09:29:41Z</time>
      </trkpt>
      <trkpt lat="51.03613" lon="2.91096">
        <ele>2.2</ele>
        <time>2021-08-18T09:30:09Z</time>
      </trkpt>
      <trkpt lat="51.0358" lon="2.91083">
        <ele>2.4</ele>
        <time>2021-08-18T09:30:35Z</time>
      </trkpt>
      <trkpt lat="51.03549" lon="2.91059">
        <ele>2</ele>
        <time>2021-08-18T09:31:01Z</time>
      </trkpt>
      <trkpt lat="51.03538" lon="2.91047">
        <ele>3</ele>
        <time>2021-08-18T09:31:13Z</time>
      </trkpt>
      <trkpt lat="51.03538" lon="2.91045">
        <ele>3.2</ele>
        <time>2021-08-18T09:31:14Z</time>
      </trkpt>
      <trkpt lat="51.03539" lon="2.91043">
        <ele>3.2</ele>
        <time>2021-08-18T09:31:15Z</time>
      </trkpt>
      <trkpt lat="51.0354" lon="2.91041">
        <ele>3.6</ele>
        <time>2021-08-18T09:31:16Z</time>
      </trkpt>
      <trkpt lat="51.0354" lon="2.9104">
        <ele>3.6</ele>
        <time>2021-08-18T09:31:17Z</time>
      </trkpt>
      <trkpt lat="51.0356" lon="2.9098">
        <ele>4.6</ele>
        <time>2021-08-18T09:31:47Z</time>
      </trkpt>
      <trkpt lat="51.03579" lon="2.90948">
        <ele>5</ele>
        <time>2021-08-18T09:32:07Z</time>
      </trkpt>
      <trkpt lat="51.03611" lon="2.90928">
        <ele>5</ele>
        <time>2021-08-18T09:32:31Z</time>
      </trkpt>
      <trkpt lat="51.03641" lon="2.90897">
        <ele>4.8</ele>
        <time>2021-08-18T09:32:56Z</time>
      </trkpt>
      <trkpt lat="51.03655" lon="2.90845">
        <ele>5</ele>
        <time>2021-08-18T09:33:21Z</time>
      </trkpt>
      <trkpt lat="51.03661" lon="2.90797">
        <ele>5.4</ele>
        <time>2021-08-18T09:33:44Z</time>
      </trkpt>
      <trkpt lat="51.03664" lon="2.9075">
        <ele>5</ele>
        <time>2021-08-18T09:34:04Z</time>
      </trkpt>
      <trkpt lat="51.03668" lon="2.90702">
        <ele>4.8</ele>
        <time>2021-08-18T09:34:25Z</time>
      </trkpt>
      <trkpt lat="51.03674" lon="2.90652">
        <ele>4.6</ele>
        <time>2021-08-18T09:34:48Z</time>
      </trkpt>
      <trkpt lat="51.03678" lon="2.90606">
        <ele>4.8</ele>
        <time>2021-08-18T09:35:09Z</time>
      </trkpt>
      <trkpt lat="51.03683" lon="2.90551">
        <ele>4.8</ele>
        <time>2021-08-18T09:35:34Z</time>
      </trkpt>
      <trkpt lat="51.03688" lon="2.905">
        <ele>4.6</ele>
        <time>2021-08-18T09:35:57Z</time>
      </trkpt>
      <trkpt lat="51.03694" lon="2.9044">
        <ele>4.8</ele>
        <time>2021-08-18T09:36:24Z</time>
      </trkpt>
      <trkpt lat="51.037" lon="2.90383">
        <ele>5</ele>
        <time>2021-08-18T09:36:49Z</time>
      </trkpt>
      <trkpt lat="51.03705" lon="2.9033">
        <ele>4.8</ele>
        <time>2021-08-18T09:37:13Z</time>
      </trkpt>
      <trkpt lat="51.0371" lon="2.90273">
        <ele>4.8</ele>
        <time>2021-08-18T09:37:38Z</time>
      </trkpt>
      <trkpt lat="51.03715" lon="2.90224">
        <ele>4.8</ele>
        <time>2021-08-18T09:38:00Z</time>
      </trkpt>
      <trkpt lat="51.03721" lon="2.90176">
        <ele>4.8</ele>
        <time>2021-08-18T09:38:22Z</time>
      </trkpt>
      <trkpt lat="51.03728" lon="2.90121">
        <ele>5</ele>
        <time>2021-08-18T09:38:47Z</time>
      </trkpt>
      <trkpt lat="51.03735" lon="2.90063">
        <ele>5.2</ele>
        <time>2021-08-18T09:39:13Z</time>
      </trkpt>
      <trkpt lat="51.03742" lon="2.90002">
        <ele>4.8</ele>
        <time>2021-08-18T09:39:40Z</time>
      </trkpt>
      <trkpt lat="51.03749" lon="2.89949">
        <ele>4.8</ele>
        <time>2021-08-18T09:40:04Z</time>
      </trkpt>
      <trkpt lat="51.03755" lon="2.89893">
        <ele>4.8</ele>
        <time>2021-08-18T09:40:29Z</time>
      </trkpt>
      <trkpt lat="51.03759" lon="2.89839">
        <ele>4.8</ele>
        <time>2021-08-18T09:40:53Z</time>
      </trkpt>
      <trkpt lat="51.03763" lon="2.89788">
        <ele>5</ele>
        <time>2021-08-18T09:41:16Z</time>
      </trkpt>
      <trkpt lat="51.03766" lon="2.89731">
        <ele>5</ele>
        <time>2021-08-18T09:41:42Z</time>
      </trkpt>
      <trkpt lat="51.03772" lon="2.89681">
        <ele>4.8</ele>
        <time>2021-08-18T09:42:05Z</time>
      </trkpt>
      <trkpt lat="51.03778" lon="2.89631">
        <ele>4.6</ele>
        <time>2021-08-18T09:42:28Z</time>
      </trkpt>
      <trkpt lat="51.03786" lon="2.89581">
        <ele>4.6</ele>
        <time>2021-08-18T09:42:51Z</time>
      </trkpt>
      <trkpt lat="51.03792" lon="2.89532">
        <ele>4.4</ele>
        <time>2021-08-18T09:43:13Z</time>
      </trkpt>
      <trkpt lat="51.03799" lon="2.89493">
        <ele>4.2</ele>
        <time>2021-08-18T09:43:31Z</time>
      </trkpt>
      <trkpt lat="51.03807" lon="2.89433">
        <ele>4.2</ele>
        <time>2021-08-18T09:43:58Z</time>
      </trkpt>
      <trkpt lat="51.03813" lon="2.89385">
        <ele>4.2</ele>
        <time>2021-08-18T09:44:20Z</time>
      </trkpt>
      <trkpt lat="51.03818" lon="2.89337">
        <ele>4.4</ele>
        <time>2021-08-18T09:44:42Z</time>
      </trkpt>
      <trkpt lat="51.03824" lon="2.89283">
        <ele>4.2</ele>
        <time>2021-08-18T09:45:07Z</time>
      </trkpt>
      <trkpt lat="51.03832" lon="2.89234">
        <ele>4.4</ele>
        <time>2021-08-18T09:45:29Z</time>
      </trkpt>
      <trkpt lat="51.03838" lon="2.8918">
        <ele>4.4</ele>
        <time>2021-08-18T09:45:53Z</time>
      </trkpt>
      <trkpt lat="51.03844" lon="2.89132">
        <ele>4.6</ele>
        <time>2021-08-18T09:46:15Z</time>
      </trkpt>
      <trkpt lat="51.0385" lon="2.8907">
        <ele>4.6</ele>
        <time>2021-08-18T09:46:43Z</time>
      </trkpt>
      <trkpt lat="51.03853" lon="2.89028">
        <ele>4.8</ele>
        <time>2021-08-18T09:47:02Z</time>
      </trkpt>
      <trkpt lat="51.03857" lon="2.8898">
        <ele>4.8</ele>
        <time>2021-08-18T09:47:24Z</time>
      </trkpt>
      <trkpt lat="51.03861" lon="2.88935">
        <ele>4.8</ele>
        <time>2021-08-18T09:47:45Z</time>
      </trkpt>
      <trkpt lat="51.03868" lon="2.88885">
        <ele>4.8</ele>
        <time>2021-08-18T09:48:08Z</time>
      </trkpt>
      <trkpt lat="51.03873" lon="2.88837">
        <ele>4.8</ele>
        <time>2021-08-18T09:48:30Z</time>
      </trkpt>
      <trkpt lat="51.0388" lon="2.88785">
        <ele>4.6</ele>
        <time>2021-08-18T09:48:53Z</time>
      </trkpt>
      <trkpt lat="51.03885" lon="2.88734">
        <ele>4.8</ele>
        <time>2021-08-18T09:49:16Z</time>
      </trkpt>
      <trkpt lat="51.03889" lon="2.88691">
        <ele>4.6</ele>
        <time>2021-08-18T09:49:35Z</time>
      </trkpt>
      <trkpt lat="51.03895" lon="2.8863">
        <ele>5</ele>
        <time>2021-08-18T09:50:01Z</time>
      </trkpt>
      <trkpt lat="51.03898" lon="2.88585">
        <ele>5</ele>
        <time>2021-08-18T09:50:21Z</time>
      </trkpt>
      <trkpt lat="51.03903" lon="2.88538">
        <ele>5</ele>
        <time>2021-08-18T09:50:42Z</time>
      </trkpt>
      <trkpt lat="51.03908" lon="2.88486">
        <ele>5.2</ele>
        <time>2021-08-18T09:51:05Z</time>
      </trkpt>
      <trkpt lat="51.03915" lon="2.88423">
        <ele>5</ele>
        <time>2021-08-18T09:51:33Z</time>
      </trkpt>
      <trkpt lat="51.0392" lon="2.88378">
        <ele>5</ele>
        <time>2021-08-18T09:51:53Z</time>
      </trkpt>
      <trkpt lat="51.03924" lon="2.8832">
        <ele>5</ele>
        <time>2021-08-18T09:52:19Z</time>
      </trkpt>
      <trkpt lat="51.03925" lon="2.88263">
        <ele>5.4</ele>
        <time>2021-08-18T09:52:44Z</time>
      </trkpt>
      <trkpt lat="51.03931" lon="2.88215">
        <ele>5.2</ele>
        <time>2021-08-18T09:53:06Z</time>
      </trkpt>
      <trkpt lat="51.03943" lon="2.88168">
        <ele>5.4</ele>
        <time>2021-08-18T09:53:29Z</time>
      </trkpt>
      <trkpt lat="51.03954" lon="2.88133">
        <ele>5.6</ele>
        <time>2021-08-18T09:53:47Z</time>
      </trkpt>
      <trkpt lat="51.03965" lon="2.88091">
        <ele>5</ele>
        <time>2021-08-18T09:54:08Z</time>
      </trkpt>
      <trkpt lat="51.03977" lon="2.88039">
        <ele>5</ele>
        <time>2021-08-18T09:54:33Z</time>
      </trkpt>
      <trkpt lat="51.03991" lon="2.87986">
        <ele>5.2</ele>
        <time>2021-08-18T09:54:59Z</time>
      </trkpt>
      <trkpt lat="51.04" lon="2.87952">
        <ele>4.8</ele>
        <time>2021-08-18T09:55:16Z</time>
      </trkpt>
      <trkpt lat="51.0401" lon="2.87913">
        <ele>4.8</ele>
        <time>2021-08-18T09:55:35Z</time>
      </trkpt>
      <trkpt lat="51.04022" lon="2.87868">
        <ele>4.8</ele>
        <time>2021-08-18T09:55:57Z</time>
      </trkpt>
      <trkpt lat="51.04032" lon="2.87831">
        <ele>4.8</ele>
        <time>2021-08-18T09:56:16Z</time>
      </trkpt>
      <trkpt lat="51.04048" lon="2.87778">
        <ele>5</ele>
        <time>2021-08-18T09:56:42Z</time>
      </trkpt>
      <trkpt lat="51.04057" lon="2.87747">
        <ele>4.8</ele>
        <time>2021-08-18T09:56:58Z</time>
      </trkpt>
      <trkpt lat="51.0407" lon="2.87707">
        <ele>5</ele>
        <time>2021-08-18T09:57:19Z</time>
      </trkpt>
      <trkpt lat="51.04086" lon="2.87665">
        <ele>5</ele>
        <time>2021-08-18T09:57:41Z</time>
      </trkpt>
      <trkpt lat="51.04106" lon="2.87619">
        <ele>5.2</ele>
        <time>2021-08-18T09:58:06Z</time>
      </trkpt>
      <trkpt lat="51.04125" lon="2.87577">
        <ele>4.8</ele>
        <time>2021-08-18T09:58:30Z</time>
      </trkpt>
      <trkpt lat="51.04131" lon="2.87535">
        <ele>5.2</ele>
        <time>2021-08-18T09:58:49Z</time>
      </trkpt>
      <trkpt lat="51.04142" lon="2.87473">
        <ele>4.8</ele>
        <time>2021-08-18T09:59:18Z</time>
      </trkpt>
      <trkpt lat="51.04143" lon="2.87429">
        <ele>5</ele>
        <time>2021-08-18T09:59:38Z</time>
      </trkpt>
      <trkpt lat="51.04138" lon="2.87403">
        <ele>4.2</ele>
        <time>2021-08-18T09:59:55Z</time>
      </trkpt>
      <trkpt lat="51.04138" lon="2.87402">
        <ele>4.2</ele>
        <time>2021-08-18T09:59:56Z</time>
      </trkpt>
      <trkpt lat="51.04137" lon="2.874">
        <ele>4.2</ele>
        <time>2021-08-18T09:59:57Z</time>
      </trkpt>
      <trkpt lat="51.04136" lon="2.87398">
        <ele>4.6</ele>
        <time>2021-08-18T09:59:58Z</time>
      </trkpt>
      <trkpt lat="51.04135" lon="2.87396">
        <ele>4.8</ele>
        <time>2021-08-18T09:59:59Z</time>
      </trkpt>
      <trkpt lat="51.04135" lon="2.87393">
        <ele>4.6</ele>
        <time>2021-08-18T10:00:00Z</time>
      </trkpt>
      <trkpt lat="51.04115" lon="2.87334">
        <ele>5</ele>
        <time>2021-08-18T10:00:29Z</time>
      </trkpt>
      <trkpt lat="51.04093" lon="2.87283">
        <ele>5.6</ele>
        <time>2021-08-18T10:00:56Z</time>
      </trkpt>
      <trkpt lat="51.04066" lon="2.87256">
        <ele>5.2</ele>
        <time>2021-08-18T10:01:19Z</time>
      </trkpt>
      <trkpt lat="51.04043" lon="2.87244">
        <ele>4.8</ele>
        <time>2021-08-18T10:01:37Z</time>
      </trkpt>
      <trkpt lat="51.04039" lon="2.87243">
        <ele>5</ele>
        <time>2021-08-18T10:01:40Z</time>
      </trkpt>
      <trkpt lat="51.04038" lon="2.87244">
        <ele>5</ele>
        <time>2021-08-18T10:01:41Z</time>
      </trkpt>
      <trkpt lat="51.04037" lon="2.87245">
        <ele>5</ele>
        <time>2021-08-18T10:01:42Z</time>
      </trkpt>
      <trkpt lat="51.04036" lon="2.87247">
        <ele>5</ele>
        <time>2021-08-18T10:01:43Z</time>
      </trkpt>
      <trkpt lat="51.04036" lon="2.87249">
        <ele>5</ele>
        <time>2021-08-18T10:01:44Z</time>
      </trkpt>
      <trkpt lat="51.04036" lon="2.87251">
        <ele>5</ele>
        <time>2021-08-18T10:01:45Z</time>
      </trkpt>
      <trkpt lat="51.04035" lon="2.87253">
        <ele>5</ele>
        <time>2021-08-18T10:01:46Z</time>
      </trkpt>
      <trkpt lat="51.04034" lon="2.87255">
        <ele>5</ele>
        <time>2021-08-18T10:01:47Z</time>
      </trkpt>
      <trkpt lat="51.04033" lon="2.8726">
        <ele>5.2</ele>
        <time>2021-08-18T10:01:50Z</time>
      </trkpt>
      <trkpt lat="51.04033" lon="2.87262">
        <ele>5.2</ele>
        <time>2021-08-18T10:01:51Z</time>
      </trkpt>
      <trkpt lat="51.04031" lon="2.87279">
        <ele>4.4</ele>
        <time>2021-08-18T10:02:08Z</time>
      </trkpt>
      <trkpt lat="51.04031" lon="2.8728">
        <ele>4.6</ele>
        <time>2021-08-18T10:02:09Z</time>
      </trkpt>
      <trkpt lat="51.04029" lon="2.87286">
        <ele>5.2</ele>
        <time>2021-08-18T10:02:13Z</time>
      </trkpt>
      <trkpt lat="51.04029" lon="2.87288">
        <ele>5.2</ele>
        <time>2021-08-18T10:02:14Z</time>
      </trkpt>
      <trkpt lat="51.04028" lon="2.8729">
        <ele>5.2</ele>
        <time>2021-08-18T10:02:15Z</time>
      </trkpt>
      <trkpt lat="51.04015" lon="2.8733">
        <ele>4.8</ele>
        <time>2021-08-18T10:02:36Z</time>
      </trkpt>
      <trkpt lat="51.04001" lon="2.87347">
        <ele>4.4</ele>
        <time>2021-08-18T10:02:49Z</time>
      </trkpt>
      <trkpt lat="51.0398" lon="2.87379">
        <ele>4.6</ele>
        <time>2021-08-18T10:03:09Z</time>
      </trkpt>
      <trkpt lat="51.03949" lon="2.87418">
        <ele>5.2</ele>
        <time>2021-08-18T10:03:37Z</time>
      </trkpt>
      <trkpt lat="51.03947" lon="2.87419">
        <ele>5.4</ele>
        <time>2021-08-18T10:03:39Z</time>
      </trkpt>
      <trkpt lat="51.03945" lon="2.87418">
        <ele>5.4</ele>
        <time>2021-08-18T10:03:40Z</time>
      </trkpt>
      <trkpt lat="51.03944" lon="2.87416">
        <ele>5.4</ele>
        <time>2021-08-18T10:03:41Z</time>
      </trkpt>
      <trkpt lat="51.03944" lon="2.87414">
        <ele>5.4</ele>
        <time>2021-08-18T10:03:42Z</time>
      </trkpt>
      <trkpt lat="51.03943" lon="2.87412">
        <ele>5.4</ele>
        <time>2021-08-18T10:03:43Z</time>
      </trkpt>
      <trkpt lat="51.03928" lon="2.87359">
        <ele>5.8</ele>
        <time>2021-08-18T10:04:09Z</time>
      </trkpt>
      <trkpt lat="51.03905" lon="2.87331">
        <ele>5.6</ele>
        <time>2021-08-18T10:04:30Z</time>
      </trkpt>
      <trkpt lat="51.03877" lon="2.87329">
        <ele>5.4</ele>
        <time>2021-08-18T10:04:51Z</time>
      </trkpt>
      <trkpt lat="51.03856" lon="2.87336">
        <ele>5.4</ele>
        <time>2021-08-18T10:05:06Z</time>
      </trkpt>
      <trkpt lat="51.03822" lon="2.87349">
        <ele>5.6</ele>
        <time>2021-08-18T10:05:31Z</time>
      </trkpt>
      <trkpt lat="51.0379" lon="2.87363">
        <ele>5.6</ele>
        <time>2021-08-18T10:05:54Z</time>
      </trkpt>
      <trkpt lat="51.03763" lon="2.87363">
        <ele>5.8</ele>
        <time>2021-08-18T10:06:14Z</time>
      </trkpt>
      <trkpt lat="51.0372" lon="2.87363">
        <ele>6</ele>
        <time>2021-08-18T10:06:43Z</time>
      </trkpt>
      <trkpt lat="51.03689" lon="2.87357">
        <ele>6</ele>
        <time>2021-08-18T10:07:05Z</time>
      </trkpt>
      <trkpt lat="51.03668" lon="2.87354">
        <ele>5.8</ele>
        <time>2021-08-18T10:07:21Z</time>
      </trkpt>
      <trkpt lat="51.03667" lon="2.87352">
        <ele>5.8</ele>
        <time>2021-08-18T10:07:22Z</time>
      </trkpt>
      <trkpt lat="51.03666" lon="2.8735">
        <ele>5.8</ele>
        <time>2021-08-18T10:07:23Z</time>
      </trkpt>
      <trkpt lat="51.03666" lon="2.87348">
        <ele>5.8</ele>
        <time>2021-08-18T10:07:24Z</time>
      </trkpt>
      <trkpt lat="51.03666" lon="2.87346">
        <ele>5.8</ele>
        <time>2021-08-18T10:07:25Z</time>
      </trkpt>
      <trkpt lat="51.03655" lon="2.87299">
        <ele>5.8</ele>
        <time>2021-08-18T10:07:45Z</time>
      </trkpt>
      <trkpt lat="51.03642" lon="2.87242">
        <ele>6.4</ele>
        <time>2021-08-18T10:08:10Z</time>
      </trkpt>
      <trkpt lat="51.03631" lon="2.87192">
        <ele>6.2</ele>
        <time>2021-08-18T10:08:32Z</time>
      </trkpt>
      <trkpt lat="51.03619" lon="2.87141">
        <ele>6.2</ele>
        <time>2021-08-18T10:08:55Z</time>
      </trkpt>
      <trkpt lat="51.03606" lon="2.87094">
        <ele>6.4</ele>
        <time>2021-08-18T10:09:16Z</time>
      </trkpt>
      <trkpt lat="51.03592" lon="2.87051">
        <ele>6.6</ele>
        <time>2021-08-18T10:09:36Z</time>
      </trkpt>
      <trkpt lat="51.03576" lon="2.87011">
        <ele>7</ele>
        <time>2021-08-18T10:09:57Z</time>
      </trkpt>
      <trkpt lat="51.03558" lon="2.86948">
        <ele>7.2</ele>
        <time>2021-08-18T10:10:26Z</time>
      </trkpt>
      <trkpt lat="51.03545" lon="2.86902">
        <ele>7.8</ele>
        <time>2021-08-18T10:10:48Z</time>
      </trkpt>
      <trkpt lat="51.03542" lon="2.86891">
        <ele>7.8</ele>
        <time>2021-08-18T10:10:53Z</time>
      </trkpt>
      <trkpt lat="51.03543" lon="2.86889">
        <ele>7.8</ele>
        <time>2021-08-18T10:10:54Z</time>
      </trkpt>
      <trkpt lat="51.03544" lon="2.86888">
        <ele>8</ele>
        <time>2021-08-18T10:10:55Z</time>
      </trkpt>
      <trkpt lat="51.03556" lon="2.86859">
        <ele>7.8</ele>
        <time>2021-08-18T10:11:13Z</time>
      </trkpt>
      <trkpt lat="51.03539" lon="2.86803">
        <ele>8.2</ele>
        <time>2021-08-18T10:11:41Z</time>
      </trkpt>
      <trkpt lat="51.03537" lon="2.86802">
        <ele>8</ele>
        <time>2021-08-18T10:11:43Z</time>
      </trkpt>
      <trkpt lat="51.03536" lon="2.86802">
        <ele>8</ele>
        <time>2021-08-18T10:11:44Z</time>
      </trkpt>
      <trkpt lat="51.03535" lon="2.86802">
        <ele>8</ele>
        <time>2021-08-18T10:11:45Z</time>
      </trkpt>
      <trkpt lat="51.03534" lon="2.86803">
        <ele>7.8</ele>
        <time>2021-08-18T10:11:46Z</time>
      </trkpt>
      <trkpt lat="51.03533" lon="2.86803">
        <ele>7.8</ele>
        <time>2021-08-18T10:11:47Z</time>
      </trkpt>
      <trkpt lat="51.03531" lon="2.86803">
        <ele>7.8</ele>
        <time>2021-08-18T10:11:48Z</time>
      </trkpt>
      <trkpt lat="51.0353" lon="2.86803">
        <ele>7.8</ele>
        <time>2021-08-18T10:11:49Z</time>
      </trkpt>
      <trkpt lat="51.03515" lon="2.86806">
        <ele>6.8</ele>
        <time>2021-08-18T10:12:03Z</time>
      </trkpt>
      <trkpt lat="51.03514" lon="2.86805">
        <ele>6.8</ele>
        <time>2021-08-18T10:12:04Z</time>
      </trkpt>
      <trkpt lat="51.03512" lon="2.86805">
        <ele>6.8</ele>
        <time>2021-08-18T10:12:05Z</time>
      </trkpt>
      <trkpt lat="51.03511" lon="2.86804">
        <ele>6.8</ele>
        <time>2021-08-18T10:12:06Z</time>
      </trkpt>
      <trkpt lat="51.03509" lon="2.86804">
        <ele>6.8</ele>
        <time>2021-08-18T10:12:07Z</time>
      </trkpt>
      <trkpt lat="51.03508" lon="2.86803">
        <ele>6.6</ele>
        <time>2021-08-18T10:12:08Z</time>
      </trkpt>
      <trkpt lat="51.03478" lon="2.86794">
        <ele>6.2</ele>
        <time>2021-08-18T10:12:29Z</time>
      </trkpt>
      <trkpt lat="51.0345" lon="2.86784">
        <ele>6.6</ele>
        <time>2021-08-18T10:12:49Z</time>
      </trkpt>
      <trkpt lat="51.03422" lon="2.86779">
        <ele>7.2</ele>
        <time>2021-08-18T10:13:09Z</time>
      </trkpt>
      <trkpt lat="51.0342" lon="2.86777">
        <ele>7.6</ele>
        <time>2021-08-18T10:13:11Z</time>
      </trkpt>
      <trkpt lat="51.03419" lon="2.86776">
        <ele>7.6</ele>
        <time>2021-08-18T10:13:12Z</time>
      </trkpt>
      <trkpt lat="51.03418" lon="2.86774">
        <ele>7.6</ele>
        <time>2021-08-18T10:13:13Z</time>
      </trkpt>
      <trkpt lat="51.03417" lon="2.86772">
        <ele>7.8</ele>
        <time>2021-08-18T10:13:14Z</time>
      </trkpt>
      <trkpt lat="51.03417" lon="2.86771">
        <ele>7.8</ele>
        <time>2021-08-18T10:13:15Z</time>
      </trkpt>
      <trkpt lat="51.03416" lon="2.86769">
        <ele>8</ele>
        <time>2021-08-18T10:13:16Z</time>
      </trkpt>
      <trkpt lat="51.03416" lon="2.86767">
        <ele>8.2</ele>
        <time>2021-08-18T10:13:17Z</time>
      </trkpt>
      <trkpt lat="51.03407" lon="2.86743">
        <ele>10.6</ele>
        <time>2021-08-18T10:13:34Z</time>
      </trkpt>
      <trkpt lat="51.03404" lon="2.86741">
        <ele>10.6</ele>
        <time>2021-08-18T10:13:37Z</time>
      </trkpt>
      <trkpt lat="51.03403" lon="2.86741">
        <ele>10.6</ele>
        <time>2021-08-18T10:13:38Z</time>
      </trkpt>
      <trkpt lat="51.034" lon="2.8674">
        <ele>10.6</ele>
        <time>2021-08-18T10:13:40Z</time>
      </trkpt>
      <trkpt lat="51.03398" lon="2.8674">
        <ele>10.6</ele>
        <time>2021-08-18T10:13:41Z</time>
      </trkpt>
      <trkpt lat="51.0338" lon="2.86738">
        <ele>10.8</ele>
        <time>2021-08-18T10:13:54Z</time>
      </trkpt>
      <trkpt lat="51.03379" lon="2.86736">
        <ele>10.8</ele>
        <time>2021-08-18T10:13:55Z</time>
      </trkpt>
      <trkpt lat="51.03378" lon="2.86734">
        <ele>10.8</ele>
        <time>2021-08-18T10:13:56Z</time>
      </trkpt>
      <trkpt lat="51.03377" lon="2.86732">
        <ele>10.8</ele>
        <time>2021-08-18T10:13:57Z</time>
      </trkpt>
      <trkpt lat="51.03377" lon="2.86729">
        <ele>10.8</ele>
        <time>2021-08-18T10:13:58Z</time>
      </trkpt>
      <trkpt lat="51.03376" lon="2.86727">
        <ele>10.8</ele>
        <time>2021-08-18T10:13:59Z</time>
      </trkpt>
      <trkpt lat="51.03374" lon="2.86724">
        <ele>10.8</ele>
        <time>2021-08-18T10:14:01Z</time>
      </trkpt>
      <trkpt lat="51.03373" lon="2.86723">
        <ele>10.6</ele>
        <time>2021-08-18T10:14:02Z</time>
      </trkpt>
      <trkpt lat="51.03372" lon="2.86722">
        <ele>10.6</ele>
        <time>2021-08-18T10:14:03Z</time>
      </trkpt>
      <trkpt lat="51.03371" lon="2.8672">
        <ele>10.8</ele>
        <time>2021-08-18T10:14:04Z</time>
      </trkpt>
      <trkpt lat="51.0337" lon="2.86718">
        <ele>10.8</ele>
        <time>2021-08-18T10:14:05Z</time>
      </trkpt>
      <trkpt lat="51.0336" lon="2.86684">
        <ele>10.8</ele>
        <time>2021-08-18T10:14:22Z</time>
      </trkpt>
      <trkpt lat="51.03357" lon="2.86672">
        <ele>10.8</ele>
        <time>2021-08-18T10:14:28Z</time>
      </trkpt>
      <trkpt lat="51.03351" lon="2.86659">
        <ele>10.6</ele>
        <time>2021-08-18T10:14:44Z</time>
      </trkpt>
      <trkpt lat="51.03351" lon="2.86657">
        <ele>10.6</ele>
        <time>2021-08-18T10:14:46Z</time>
      </trkpt>
      <trkpt lat="51.03349" lon="2.86651">
        <ele>10.4</ele>
        <time>2021-08-18T10:14:49Z</time>
      </trkpt>
      <trkpt lat="51.03348" lon="2.86649">
        <ele>10.4</ele>
        <time>2021-08-18T10:14:50Z</time>
      </trkpt>
      <trkpt lat="51.03348" lon="2.86646">
        <ele>10.4</ele>
        <time>2021-08-18T10:14:51Z</time>
      </trkpt>
      <trkpt lat="51.03335" lon="2.86606">
        <ele>10.6</ele>
        <time>2021-08-18T10:15:11Z</time>
      </trkpt>
      <trkpt lat="51.03333" lon="2.86594">
        <ele>10.2</ele>
        <time>2021-08-18T10:15:17Z</time>
      </trkpt>
      <trkpt lat="51.03334" lon="2.86592">
        <ele>10</ele>
        <time>2021-08-18T10:15:18Z</time>
      </trkpt>
      <trkpt lat="51.03336" lon="2.86589">
        <ele>9.8</ele>
        <time>2021-08-18T10:15:35Z</time>
      </trkpt>
      <trkpt lat="51.03336" lon="2.86587">
        <ele>10</ele>
        <time>2021-08-18T10:15:40Z</time>
      </trkpt>
      <trkpt lat="51.03336" lon="2.8658">
        <ele>9.8</ele>
        <time>2021-08-18T10:15:43Z</time>
      </trkpt>
      <trkpt lat="51.03336" lon="2.86577">
        <ele>9.8</ele>
        <time>2021-08-18T10:15:44Z</time>
      </trkpt>
      <trkpt lat="51.03336" lon="2.86575">
        <ele>9.8</ele>
        <time>2021-08-18T10:15:45Z</time>
      </trkpt>
      <trkpt lat="51.03336" lon="2.86572">
        <ele>9.8</ele>
        <time>2021-08-18T10:15:46Z</time>
      </trkpt>
      <trkpt lat="51.03336" lon="2.8657">
        <ele>9.8</ele>
        <time>2021-08-18T10:15:47Z</time>
      </trkpt>
      <trkpt lat="51.03339" lon="2.86549">
        <ele>9.8</ele>
        <time>2021-08-18T10:16:00Z</time>
      </trkpt>
      <trkpt lat="51.0334" lon="2.86548">
        <ele>13.6</ele>
        <time>2021-08-18T10:16:08Z</time>
      </trkpt>
      <trkpt lat="51.0334" lon="2.86547">
        <ele>11.4</ele>
        <time>2021-08-18T10:16:15Z</time>
      </trkpt>
      <trkpt lat="51.0334" lon="2.86547">
        <ele>10.6</ele>
        <time>2021-08-18T10:16:17Z</time>
      </trkpt>
    </trkseg>
  </trk>
</gpx>